<?xml version="1.0" encoding="UTF-8" standalone="no" ?>
<gpx xmlns="http://www.topografix.com/GPX/1/1" xmlns:xsi="http://www.w3.org/2001/XMLSchema-instance" xsi:schemaLocation="http://www.topografix.com/GPX/1/1 http://www.topografix.com/GPX/1/1/gpx.xsd" version="1.1" creator="VisuGPX - https://www.visugpx.com">
  <metadata>
    <name>Reco TransV jour 1</name>
    <desc><![CDATA[1 er jour reco TransV 09 05 2013]]></desc>
  </metadata>
  <trk>
    <name><![CDATA[LEVENS 9 5 13]]></name>
    <trkseg>
      <trkpt lat="43.86037" lon="7.2274">
        <ele>534</ele>
        <time>2013-05-08T19:34:28.590Z</time>
      </trkpt>
      <trkpt lat="43.86022" lon="7.22742">
        <ele>534</ele>
        <time>2013-05-09T08:24:23.870Z</time>
      </trkpt>
      <trkpt lat="43.86012" lon="7.2275">
        <ele>530</ele>
        <time>2013-05-09T08:32:50.870Z</time>
      </trkpt>
      <trkpt lat="43.86025" lon="7.22747">
        <ele>530</ele>
        <time>2013-05-09T08:35:15.870Z</time>
      </trkpt>
      <trkpt lat="43.86018" lon="7.22777">
        <ele>540</ele>
        <time>2013-05-09T08:36:42.860Z</time>
      </trkpt>
      <trkpt lat="43.86023" lon="7.22758">
        <ele>539</ele>
        <time>2013-05-09T08:37:27.880Z</time>
      </trkpt>
      <trkpt lat="43.86022" lon="7.22785">
        <ele>534</ele>
        <time>2013-05-09T08:42:46.890Z</time>
      </trkpt>
      <trkpt lat="43.86017" lon="7.22752">
        <ele>536</ele>
        <time>2013-05-09T08:43:00.890Z</time>
      </trkpt>
      <trkpt lat="43.86032" lon="7.22717">
        <ele>541</ele>
        <time>2013-05-09T08:43:11.890Z</time>
      </trkpt>
      <trkpt lat="43.86062" lon="7.22688">
        <ele>545</ele>
        <time>2013-05-09T08:43:25.890Z</time>
      </trkpt>
      <trkpt lat="43.86093" lon="7.22678">
        <ele>546</ele>
        <time>2013-05-09T08:43:38.880Z</time>
      </trkpt>
      <trkpt lat="43.86152" lon="7.22697">
        <ele>548</ele>
        <time>2013-05-09T08:44:01.890Z</time>
      </trkpt>
      <trkpt lat="43.86178" lon="7.22682">
        <ele>550</ele>
        <time>2013-05-09T08:44:10.890Z</time>
      </trkpt>
      <trkpt lat="43.86195" lon="7.22625">
        <ele>551</ele>
        <time>2013-05-09T08:44:25.880Z</time>
      </trkpt>
      <trkpt lat="43.86232" lon="7.22595">
        <ele>555</ele>
        <time>2013-05-09T08:44:41.880Z</time>
      </trkpt>
      <trkpt lat="43.86265" lon="7.22582">
        <ele>556</ele>
        <time>2013-05-09T08:44:53.880Z</time>
      </trkpt>
      <trkpt lat="43.86272" lon="7.22557">
        <ele>560</ele>
        <time>2013-05-09T08:45:03.890Z</time>
      </trkpt>
      <trkpt lat="43.86245" lon="7.22557">
        <ele>566</ele>
        <time>2013-05-09T08:45:14.880Z</time>
      </trkpt>
      <trkpt lat="43.86212" lon="7.22573">
        <ele>571</ele>
        <time>2013-05-09T08:45:31.880Z</time>
      </trkpt>
      <trkpt lat="43.86185" lon="7.22578">
        <ele>577</ele>
        <time>2013-05-09T08:45:43.890Z</time>
      </trkpt>
      <trkpt lat="43.8603" lon="7.22618">
        <ele>586</ele>
        <time>2013-05-09T08:46:38.880Z</time>
      </trkpt>
      <trkpt lat="43.85993" lon="7.22628">
        <ele>588</ele>
        <time>2013-05-09T08:46:50.880Z</time>
      </trkpt>
      <trkpt lat="43.8597" lon="7.22643">
        <ele>590</ele>
        <time>2013-05-09T08:46:58.890Z</time>
      </trkpt>
      <trkpt lat="43.85945" lon="7.2265">
        <ele>590</ele>
        <time>2013-05-09T08:47:07.890Z</time>
      </trkpt>
      <trkpt lat="43.85922" lon="7.22645">
        <ele>590</ele>
        <time>2013-05-09T08:47:17.890Z</time>
      </trkpt>
      <trkpt lat="43.85898" lon="7.22622">
        <ele>590</ele>
        <time>2013-05-09T08:47:27.890Z</time>
      </trkpt>
      <trkpt lat="43.85918" lon="7.22585">
        <ele>592</ele>
        <time>2013-05-09T08:47:43.890Z</time>
      </trkpt>
      <trkpt lat="43.85935" lon="7.22557">
        <ele>599</ele>
        <time>2013-05-09T08:47:51.880Z</time>
      </trkpt>
      <trkpt lat="43.85962" lon="7.22543">
        <ele>588</ele>
        <time>2013-05-09T08:48:09.890Z</time>
      </trkpt>
      <trkpt lat="43.85982" lon="7.22527">
        <ele>588</ele>
        <time>2013-05-09T08:48:52.880Z</time>
      </trkpt>
      <trkpt lat="43.85985" lon="7.22498">
        <ele>588</ele>
        <time>2013-05-09T08:49:00.890Z</time>
      </trkpt>
      <trkpt lat="43.85987" lon="7.22465">
        <ele>594</ele>
        <time>2013-05-09T08:49:17.890Z</time>
      </trkpt>
      <trkpt lat="43.8601" lon="7.22457">
        <ele>594</ele>
        <time>2013-05-09T08:49:32.880Z</time>
      </trkpt>
      <trkpt lat="43.85985" lon="7.22468">
        <ele>591</ele>
        <time>2013-05-09T08:49:44.890Z</time>
      </trkpt>
      <trkpt lat="43.85983" lon="7.22507">
        <ele>590</ele>
        <time>2013-05-09T08:49:52.900Z</time>
      </trkpt>
      <trkpt lat="43.85992" lon="7.22543">
        <ele>588</ele>
        <time>2013-05-09T08:49:59.890Z</time>
      </trkpt>
      <trkpt lat="43.86012" lon="7.22575">
        <ele>585</ele>
        <time>2013-05-09T08:50:08.890Z</time>
      </trkpt>
      <trkpt lat="43.86048" lon="7.2258">
        <ele>586</ele>
        <time>2013-05-09T08:50:24.890Z</time>
      </trkpt>
      <trkpt lat="43.86065" lon="7.22583">
        <ele>579</ele>
        <time>2013-05-09T08:50:57.890Z</time>
      </trkpt>
      <trkpt lat="43.86048" lon="7.22577">
        <ele>582</ele>
        <time>2013-05-09T08:51:31.900Z</time>
      </trkpt>
      <trkpt lat="43.86017" lon="7.22578">
        <ele>565</ele>
        <time>2013-05-09T08:51:50.880Z</time>
      </trkpt>
      <trkpt lat="43.86003" lon="7.22565">
        <ele>581</ele>
        <time>2013-05-09T08:52:02.890Z</time>
      </trkpt>
      <trkpt lat="43.85983" lon="7.22555">
        <ele>584</ele>
        <time>2013-05-09T08:52:17.890Z</time>
      </trkpt>
      <trkpt lat="43.85967" lon="7.22548">
        <ele>598</ele>
        <time>2013-05-09T08:52:33.890Z</time>
      </trkpt>
      <trkpt lat="43.85973" lon="7.22528">
        <ele>596</ele>
        <time>2013-05-09T08:52:42.890Z</time>
      </trkpt>
      <trkpt lat="43.85978" lon="7.2249">
        <ele>595</ele>
        <time>2013-05-09T08:53:00.900Z</time>
      </trkpt>
      <trkpt lat="43.85993" lon="7.22473">
        <ele>591</ele>
        <time>2013-05-09T08:53:36.890Z</time>
      </trkpt>
      <trkpt lat="43.85975" lon="7.22478">
        <ele>603</ele>
        <time>2013-05-09T08:54:05.900Z</time>
      </trkpt>
      <trkpt lat="43.85975" lon="7.2251">
        <ele>604</ele>
        <time>2013-05-09T08:54:23.890Z</time>
      </trkpt>
      <trkpt lat="43.85987" lon="7.22528">
        <ele>602</ele>
        <time>2013-05-09T08:54:35.890Z</time>
      </trkpt>
      <trkpt lat="43.85997" lon="7.22553">
        <ele>597</ele>
        <time>2013-05-09T08:54:50.900Z</time>
      </trkpt>
      <trkpt lat="43.86008" lon="7.22573">
        <ele>591</ele>
        <time>2013-05-09T08:55:14.890Z</time>
      </trkpt>
      <trkpt lat="43.86062" lon="7.22583">
        <ele>587</ele>
        <time>2013-05-09T08:55:48.900Z</time>
      </trkpt>
      <trkpt lat="43.86113" lon="7.22552">
        <ele>587</ele>
        <time>2013-05-09T08:55:59.890Z</time>
      </trkpt>
      <trkpt lat="43.86132" lon="7.22532">
        <ele>571</ele>
        <time>2013-05-09T08:56:03.890Z</time>
      </trkpt>
      <trkpt lat="43.86088" lon="7.2258">
        <ele>572</ele>
        <time>2013-05-09T08:56:22.890Z</time>
      </trkpt>
      <trkpt lat="43.86012" lon="7.22607">
        <ele>568</ele>
        <time>2013-05-09T08:56:40.900Z</time>
      </trkpt>
      <trkpt lat="43.86198" lon="7.22578">
        <ele>564</ele>
        <time>2013-05-09T08:57:44.890Z</time>
      </trkpt>
      <trkpt lat="43.86248" lon="7.22555">
        <ele>559</ele>
        <time>2013-05-09T08:57:51.890Z</time>
      </trkpt>
      <trkpt lat="43.86265" lon="7.22573">
        <ele>553</ele>
        <time>2013-05-09T08:58:53.900Z</time>
      </trkpt>
      <trkpt lat="43.86212" lon="7.22607">
        <ele>549</ele>
        <time>2013-05-09T09:05:14.900Z</time>
      </trkpt>
      <trkpt lat="43.8618" lon="7.2268">
        <ele>546</ele>
        <time>2013-05-09T09:05:25.910Z</time>
      </trkpt>
      <trkpt lat="43.86077" lon="7.22678">
        <ele>539</ele>
        <time>2013-05-09T09:05:40.900Z</time>
      </trkpt>
      <trkpt lat="43.86027" lon="7.22717">
        <ele>539</ele>
        <time>2013-05-09T09:05:47.900Z</time>
      </trkpt>
      <trkpt lat="43.86013" lon="7.22902">
        <ele>536</ele>
        <time>2013-05-09T09:06:18.900Z</time>
      </trkpt>
      <trkpt lat="43.86195" lon="7.22912">
        <ele>525</ele>
        <time>2013-05-09T09:06:57.900Z</time>
      </trkpt>
      <trkpt lat="43.86232" lon="7.2289">
        <ele>533</ele>
        <time>2013-05-09T09:07:25.900Z</time>
      </trkpt>
      <trkpt lat="43.86255" lon="7.22868">
        <ele>538</ele>
        <time>2013-05-09T09:07:46.900Z</time>
      </trkpt>
      <trkpt lat="43.86282" lon="7.22855">
        <ele>545</ele>
        <time>2013-05-09T09:08:09.910Z</time>
      </trkpt>
      <trkpt lat="43.86298" lon="7.22842">
        <ele>548</ele>
        <time>2013-05-09T09:08:57.910Z</time>
      </trkpt>
      <trkpt lat="43.86317" lon="7.2284">
        <ele>550</ele>
        <time>2013-05-09T09:10:01.910Z</time>
      </trkpt>
      <trkpt lat="43.86337" lon="7.22828">
        <ele>553</ele>
        <time>2013-05-09T09:10:18.910Z</time>
      </trkpt>
      <trkpt lat="43.8635" lon="7.22805">
        <ele>547</ele>
        <time>2013-05-09T09:10:43.910Z</time>
      </trkpt>
      <trkpt lat="43.86373" lon="7.22795">
        <ele>551</ele>
        <time>2013-05-09T09:10:57.910Z</time>
      </trkpt>
      <trkpt lat="43.86405" lon="7.22793">
        <ele>553</ele>
        <time>2013-05-09T09:11:15.910Z</time>
      </trkpt>
      <trkpt lat="43.86552" lon="7.22765">
        <ele>551</ele>
        <time>2013-05-09T09:11:56.910Z</time>
      </trkpt>
      <trkpt lat="43.86565" lon="7.22782">
        <ele>552</ele>
        <time>2013-05-09T09:12:10.910Z</time>
      </trkpt>
      <trkpt lat="43.86563" lon="7.22908">
        <ele>529</ele>
        <time>2013-05-09T09:12:26.910Z</time>
      </trkpt>
      <trkpt lat="43.86582" lon="7.22913">
        <ele>529</ele>
        <time>2013-05-09T09:12:32.920Z</time>
      </trkpt>
      <trkpt lat="43.86597" lon="7.229">
        <ele>532</ele>
        <time>2013-05-09T09:13:05.910Z</time>
      </trkpt>
      <trkpt lat="43.86612" lon="7.22885">
        <ele>545</ele>
        <time>2013-05-09T09:13:31.910Z</time>
      </trkpt>
      <trkpt lat="43.86637" lon="7.22873">
        <ele>551</ele>
        <time>2013-05-09T09:13:58.920Z</time>
      </trkpt>
      <trkpt lat="43.86665" lon="7.22888">
        <ele>553</ele>
        <time>2013-05-09T09:14:19.920Z</time>
      </trkpt>
      <trkpt lat="43.86688" lon="7.22923">
        <ele>556</ele>
        <time>2013-05-09T09:14:38.920Z</time>
      </trkpt>
      <trkpt lat="43.86708" lon="7.22907">
        <ele>560</ele>
        <time>2013-05-09T09:14:53.910Z</time>
      </trkpt>
      <trkpt lat="43.86727" lon="7.22897">
        <ele>563</ele>
        <time>2013-05-09T09:15:07.910Z</time>
      </trkpt>
      <trkpt lat="43.86752" lon="7.22902">
        <ele>565</ele>
        <time>2013-05-09T09:15:26.930Z</time>
      </trkpt>
      <trkpt lat="43.86788" lon="7.2291">
        <ele>573</ele>
        <time>2013-05-09T09:15:58.920Z</time>
      </trkpt>
      <trkpt lat="43.86803" lon="7.22915">
        <ele>573</ele>
        <time>2013-05-09T09:16:20.920Z</time>
      </trkpt>
      <trkpt lat="43.86818" lon="7.22912">
        <ele>575</ele>
        <time>2013-05-09T09:16:31.930Z</time>
      </trkpt>
      <trkpt lat="43.8684" lon="7.22902">
        <ele>574</ele>
        <time>2013-05-09T09:16:46.920Z</time>
      </trkpt>
      <trkpt lat="43.86857" lon="7.22905">
        <ele>572</ele>
        <time>2013-05-09T09:17:13.930Z</time>
      </trkpt>
      <trkpt lat="43.86893" lon="7.2292">
        <ele>573</ele>
        <time>2013-05-09T09:19:07.920Z</time>
      </trkpt>
      <trkpt lat="43.86915" lon="7.22915">
        <ele>576</ele>
        <time>2013-05-09T09:19:27.930Z</time>
      </trkpt>
      <trkpt lat="43.86938" lon="7.22903">
        <ele>582</ele>
        <time>2013-05-09T09:20:00.940Z</time>
      </trkpt>
      <trkpt lat="43.86955" lon="7.229">
        <ele>582</ele>
        <time>2013-05-09T09:20:13.930Z</time>
      </trkpt>
      <trkpt lat="43.8695" lon="7.2292">
        <ele>585</ele>
        <time>2013-05-09T09:20:27.930Z</time>
      </trkpt>
      <trkpt lat="43.8695" lon="7.22938">
        <ele>590</ele>
        <time>2013-05-09T09:21:40.930Z</time>
      </trkpt>
      <trkpt lat="43.86925" lon="7.22952">
        <ele>593</ele>
        <time>2013-05-09T09:21:52.940Z</time>
      </trkpt>
      <trkpt lat="43.869" lon="7.22957">
        <ele>593</ele>
        <time>2013-05-09T09:22:01.930Z</time>
      </trkpt>
      <trkpt lat="43.86873" lon="7.22962">
        <ele>603</ele>
        <time>2013-05-09T09:22:20.930Z</time>
      </trkpt>
      <trkpt lat="43.86848" lon="7.22977">
        <ele>604</ele>
        <time>2013-05-09T09:22:36.930Z</time>
      </trkpt>
      <trkpt lat="43.8683" lon="7.22988">
        <ele>606</ele>
        <time>2013-05-09T09:22:50.930Z</time>
      </trkpt>
      <trkpt lat="43.86798" lon="7.23002">
        <ele>618</ele>
        <time>2013-05-09T09:23:11.930Z</time>
      </trkpt>
      <trkpt lat="43.8679" lon="7.23017">
        <ele>600</ele>
        <time>2013-05-09T09:23:58.930Z</time>
      </trkpt>
      <trkpt lat="43.86775" lon="7.23035">
        <ele>601</ele>
        <time>2013-05-09T09:24:20.920Z</time>
      </trkpt>
      <trkpt lat="43.86752" lon="7.23055">
        <ele>612</ele>
        <time>2013-05-09T09:24:39.920Z</time>
      </trkpt>
      <trkpt lat="43.86735" lon="7.23068">
        <ele>616</ele>
        <time>2013-05-09T09:24:52.930Z</time>
      </trkpt>
      <trkpt lat="43.86705" lon="7.23087">
        <ele>619</ele>
        <time>2013-05-09T09:25:05.920Z</time>
      </trkpt>
      <trkpt lat="43.86683" lon="7.23128">
        <ele>615</ele>
        <time>2013-05-09T09:25:17.930Z</time>
      </trkpt>
      <trkpt lat="43.86667" lon="7.23162">
        <ele>613</ele>
        <time>2013-05-09T09:25:27.930Z</time>
      </trkpt>
      <trkpt lat="43.86638" lon="7.23203">
        <ele>617</ele>
        <time>2013-05-09T09:25:43.930Z</time>
      </trkpt>
      <trkpt lat="43.86615" lon="7.23198">
        <ele>622</ele>
        <time>2013-05-09T09:25:53.930Z</time>
      </trkpt>
      <trkpt lat="43.8657" lon="7.23215">
        <ele>636</ele>
        <time>2013-05-09T09:26:52.940Z</time>
      </trkpt>
      <trkpt lat="43.86555" lon="7.23208">
        <ele>636</ele>
        <time>2013-05-09T09:27:54.930Z</time>
      </trkpt>
      <trkpt lat="43.8655" lon="7.23228">
        <ele>617</ele>
        <time>2013-05-09T09:30:21.940Z</time>
      </trkpt>
      <trkpt lat="43.86563" lon="7.23242">
        <ele>621</ele>
        <time>2013-05-09T09:32:36.940Z</time>
      </trkpt>
      <trkpt lat="43.86577" lon="7.23262">
        <ele>633</ele>
        <time>2013-05-09T09:33:35.940Z</time>
      </trkpt>
      <trkpt lat="43.86592" lon="7.23272">
        <ele>634</ele>
        <time>2013-05-09T09:34:55.930Z</time>
      </trkpt>
      <trkpt lat="43.86608" lon="7.23292">
        <ele>637</ele>
        <time>2013-05-09T09:35:41.940Z</time>
      </trkpt>
      <trkpt lat="43.86618" lon="7.23297">
        <ele>639</ele>
        <time>2013-05-09T09:36:11.940Z</time>
      </trkpt>
      <trkpt lat="43.86638" lon="7.2331">
        <ele>644</ele>
        <time>2013-05-09T09:37:48.950Z</time>
      </trkpt>
      <trkpt lat="43.86663" lon="7.23303">
        <ele>651</ele>
        <time>2013-05-09T09:38:06.940Z</time>
      </trkpt>
      <trkpt lat="43.86682" lon="7.23293">
        <ele>659</ele>
        <time>2013-05-09T09:38:23.940Z</time>
      </trkpt>
      <trkpt lat="43.86702" lon="7.23283">
        <ele>661</ele>
        <time>2013-05-09T09:39:19.950Z</time>
      </trkpt>
      <trkpt lat="43.8672" lon="7.23278">
        <ele>665</ele>
        <time>2013-05-09T09:39:53.940Z</time>
      </trkpt>
      <trkpt lat="43.8674" lon="7.23272">
        <ele>667</ele>
        <time>2013-05-09T09:40:35.960Z</time>
      </trkpt>
      <trkpt lat="43.86755" lon="7.23275">
        <ele>672</ele>
        <time>2013-05-09T09:41:22.960Z</time>
      </trkpt>
      <trkpt lat="43.86757" lon="7.23293">
        <ele>674</ele>
        <time>2013-05-09T09:41:48.940Z</time>
      </trkpt>
      <trkpt lat="43.86757" lon="7.2332">
        <ele>679</ele>
        <time>2013-05-09T09:42:33.950Z</time>
      </trkpt>
      <trkpt lat="43.86748" lon="7.23338">
        <ele>681</ele>
        <time>2013-05-09T09:42:46.950Z</time>
      </trkpt>
      <trkpt lat="43.8673" lon="7.23368">
        <ele>685</ele>
        <time>2013-05-09T09:43:05.960Z</time>
      </trkpt>
      <trkpt lat="43.86715" lon="7.23387">
        <ele>687</ele>
        <time>2013-05-09T09:43:15.950Z</time>
      </trkpt>
      <trkpt lat="43.86708" lon="7.23413">
        <ele>688</ele>
        <time>2013-05-09T09:43:29.960Z</time>
      </trkpt>
      <trkpt lat="43.86697" lon="7.23432">
        <ele>691</ele>
        <time>2013-05-09T09:43:43.960Z</time>
      </trkpt>
      <trkpt lat="43.86685" lon="7.2345">
        <ele>693</ele>
        <time>2013-05-09T09:43:56.950Z</time>
      </trkpt>
      <trkpt lat="43.86662" lon="7.23463">
        <ele>696</ele>
        <time>2013-05-09T09:44:18.960Z</time>
      </trkpt>
      <trkpt lat="43.86643" lon="7.23473">
        <ele>699</ele>
        <time>2013-05-09T09:44:51.950Z</time>
      </trkpt>
      <trkpt lat="43.86625" lon="7.2349">
        <ele>703</ele>
        <time>2013-05-09T09:45:15.950Z</time>
      </trkpt>
      <trkpt lat="43.86617" lon="7.2352">
        <ele>702</ele>
        <time>2013-05-09T09:46:24.960Z</time>
      </trkpt>
      <trkpt lat="43.86605" lon="7.23548">
        <ele>708</ele>
        <time>2013-05-09T09:46:34.950Z</time>
      </trkpt>
      <trkpt lat="43.86595" lon="7.23578">
        <ele>712</ele>
        <time>2013-05-09T09:46:50.960Z</time>
      </trkpt>
      <trkpt lat="43.86593" lon="7.23607">
        <ele>712</ele>
        <time>2013-05-09T09:47:36.960Z</time>
      </trkpt>
      <trkpt lat="43.86603" lon="7.23652">
        <ele>708</ele>
        <time>2013-05-09T09:47:46.970Z</time>
      </trkpt>
      <trkpt lat="43.86602" lon="7.23688">
        <ele>710</ele>
        <time>2013-05-09T09:47:56.950Z</time>
      </trkpt>
      <trkpt lat="43.866" lon="7.23717">
        <ele>710</ele>
        <time>2013-05-09T09:48:21.960Z</time>
      </trkpt>
      <trkpt lat="43.86597" lon="7.23733">
        <ele>707</ele>
        <time>2013-05-09T09:49:06.960Z</time>
      </trkpt>
      <trkpt lat="43.86603" lon="7.23757">
        <ele>707</ele>
        <time>2013-05-09T09:51:07.960Z</time>
      </trkpt>
      <trkpt lat="43.8659" lon="7.23738">
        <ele>701</ele>
        <time>2013-05-09T09:57:11.970Z</time>
      </trkpt>
      <trkpt lat="43.86593" lon="7.23697">
        <ele>701</ele>
        <time>2013-05-09T09:57:24.970Z</time>
      </trkpt>
      <trkpt lat="43.86597" lon="7.2366">
        <ele>704</ele>
        <time>2013-05-09T09:57:38.970Z</time>
      </trkpt>
      <trkpt lat="43.86592" lon="7.23637">
        <ele>713</ele>
        <time>2013-05-09T09:57:51.980Z</time>
      </trkpt>
      <trkpt lat="43.86587" lon="7.23605">
        <ele>725</ele>
        <time>2013-05-09T09:58:18.970Z</time>
      </trkpt>
      <trkpt lat="43.86598" lon="7.23573">
        <ele>721</ele>
        <time>2013-05-09T09:59:01.970Z</time>
      </trkpt>
      <trkpt lat="43.86613" lon="7.23532">
        <ele>721</ele>
        <time>2013-05-09T09:59:15.980Z</time>
      </trkpt>
      <trkpt lat="43.86618" lon="7.2351">
        <ele>718</ele>
        <time>2013-05-09T09:59:32.980Z</time>
      </trkpt>
      <trkpt lat="43.86593" lon="7.23523">
        <ele>716</ele>
        <time>2013-05-09T09:59:56.980Z</time>
      </trkpt>
      <trkpt lat="43.86567" lon="7.23553">
        <ele>717</ele>
        <time>2013-05-09T10:00:36.970Z</time>
      </trkpt>
      <trkpt lat="43.8656" lon="7.23592">
        <ele>703</ele>
        <time>2013-05-09T10:04:45.980Z</time>
      </trkpt>
      <trkpt lat="43.8657" lon="7.23627">
        <ele>706</ele>
        <time>2013-05-09T10:05:20.980Z</time>
      </trkpt>
      <trkpt lat="43.86553" lon="7.23607">
        <ele>708</ele>
        <time>2013-05-09T10:05:38.990Z</time>
      </trkpt>
      <trkpt lat="43.86538" lon="7.23613">
        <ele>704</ele>
        <time>2013-05-09T10:07:12.990Z</time>
      </trkpt>
      <trkpt lat="43.86552" lon="7.23607">
        <ele>706</ele>
        <time>2013-05-09T10:07:34.990Z</time>
      </trkpt>
      <trkpt lat="43.86573" lon="7.2363">
        <ele>707</ele>
        <time>2013-05-09T10:08:26.990Z</time>
      </trkpt>
      <trkpt lat="43.8658" lon="7.23653">
        <ele>707</ele>
        <time>2013-05-09T10:08:42.980Z</time>
      </trkpt>
      <trkpt lat="43.86575" lon="7.23695">
        <ele>710</ele>
        <time>2013-05-09T10:09:12.980Z</time>
      </trkpt>
      <trkpt lat="43.86562" lon="7.23712">
        <ele>711</ele>
        <time>2013-05-09T10:09:20.990Z</time>
      </trkpt>
      <trkpt lat="43.86548" lon="7.23742">
        <ele>712</ele>
        <time>2013-05-09T10:09:34.990Z</time>
      </trkpt>
      <trkpt lat="43.86528" lon="7.2377">
        <ele>712</ele>
        <time>2013-05-09T10:09:51.990Z</time>
      </trkpt>
      <trkpt lat="43.86515" lon="7.23798">
        <ele>710</ele>
        <time>2013-05-09T10:10:12.990Z</time>
      </trkpt>
      <trkpt lat="43.86502" lon="7.23848">
        <ele>711</ele>
        <time>2013-05-09T10:10:27.980Z</time>
      </trkpt>
      <trkpt lat="43.86488" lon="7.23875">
        <ele>709</ele>
        <time>2013-05-09T10:10:36.980Z</time>
      </trkpt>
      <trkpt lat="43.8646" lon="7.23887">
        <ele>709</ele>
        <time>2013-05-09T10:10:47.990Z</time>
      </trkpt>
      <trkpt lat="43.86443" lon="7.23898">
        <ele>708</ele>
        <time>2013-05-09T10:11:39.990Z</time>
      </trkpt>
      <trkpt lat="43.86425" lon="7.23905">
        <ele>711</ele>
        <time>2013-05-09T10:12:11.990Z</time>
      </trkpt>
      <trkpt lat="43.86415" lon="7.23922">
        <ele>712</ele>
        <time>2013-05-09T10:13:47.990Z</time>
      </trkpt>
      <trkpt lat="43.86445" lon="7.23925">
        <ele>716</ele>
        <time>2013-05-09T10:15:00.990Z</time>
      </trkpt>
      <trkpt lat="43.86417" lon="7.23928">
        <ele>716</ele>
        <time>2013-05-09T10:16:05.990Z</time>
      </trkpt>
      <trkpt lat="43.8644" lon="7.23927">
        <ele>715</ele>
        <time>2013-05-09T10:19:36.990Z</time>
      </trkpt>
      <trkpt lat="43.86493" lon="7.23918">
        <ele>721</ele>
        <time>2013-05-09T10:20:22.000Z</time>
      </trkpt>
      <trkpt lat="43.86522" lon="7.2387">
        <ele>725</ele>
        <time>2013-05-09T10:20:46.000Z</time>
      </trkpt>
      <trkpt lat="43.86538" lon="7.23852">
        <ele>728</ele>
        <time>2013-05-09T10:21:00.000Z</time>
      </trkpt>
      <trkpt lat="43.86602" lon="7.2388">
        <ele>731</ele>
        <time>2013-05-09T10:21:40.000Z</time>
      </trkpt>
      <trkpt lat="43.86622" lon="7.2391">
        <ele>732</ele>
        <time>2013-05-09T10:21:56.000Z</time>
      </trkpt>
      <trkpt lat="43.86637" lon="7.23962">
        <ele>735</ele>
        <time>2013-05-09T10:22:17.990Z</time>
      </trkpt>
      <trkpt lat="43.8666" lon="7.23992">
        <ele>739</ele>
        <time>2013-05-09T10:22:36.000Z</time>
      </trkpt>
      <trkpt lat="43.8668" lon="7.24008">
        <ele>743</ele>
        <time>2013-05-09T10:22:50.000Z</time>
      </trkpt>
      <trkpt lat="43.86688" lon="7.24037">
        <ele>745</ele>
        <time>2013-05-09T10:23:01.990Z</time>
      </trkpt>
      <trkpt lat="43.86665" lon="7.24103">
        <ele>749</ele>
        <time>2013-05-09T10:23:30.000Z</time>
      </trkpt>
      <trkpt lat="43.86635" lon="7.24132">
        <ele>747</ele>
        <time>2013-05-09T10:23:43.000Z</time>
      </trkpt>
      <trkpt lat="43.8658" lon="7.24173">
        <ele>751</ele>
        <time>2013-05-09T10:24:11.000Z</time>
      </trkpt>
      <trkpt lat="43.86487" lon="7.24208">
        <ele>757</ele>
        <time>2013-05-09T10:25:05.000Z</time>
      </trkpt>
      <trkpt lat="43.86443" lon="7.24283">
        <ele>764</ele>
        <time>2013-05-09T10:25:45.000Z</time>
      </trkpt>
      <trkpt lat="43.86438" lon="7.24313">
        <ele>767</ele>
        <time>2013-05-09T10:25:59.990Z</time>
      </trkpt>
      <trkpt lat="43.86417" lon="7.24352">
        <ele>776</ele>
        <time>2013-05-09T10:26:24.000Z</time>
      </trkpt>
      <trkpt lat="43.86397" lon="7.24387">
        <ele>780</ele>
        <time>2013-05-09T10:26:42.010Z</time>
      </trkpt>
      <trkpt lat="43.86387" lon="7.24418">
        <ele>781</ele>
        <time>2013-05-09T10:26:56.010Z</time>
      </trkpt>
      <trkpt lat="43.8642" lon="7.24532">
        <ele>789</ele>
        <time>2013-05-09T10:27:52.000Z</time>
      </trkpt>
      <trkpt lat="43.86442" lon="7.24573">
        <ele>793</ele>
        <time>2013-05-09T10:28:16.010Z</time>
      </trkpt>
      <trkpt lat="43.86442" lon="7.24613">
        <ele>796</ele>
        <time>2013-05-09T10:28:34.000Z</time>
      </trkpt>
      <trkpt lat="43.86435" lon="7.24652">
        <ele>799</ele>
        <time>2013-05-09T10:28:50.000Z</time>
      </trkpt>
      <trkpt lat="43.86412" lon="7.24723">
        <ele>805</ele>
        <time>2013-05-09T10:29:22.000Z</time>
      </trkpt>
      <trkpt lat="43.86372" lon="7.24873">
        <ele>813</ele>
        <time>2013-05-09T10:30:32.010Z</time>
      </trkpt>
      <trkpt lat="43.86363" lon="7.24977">
        <ele>819</ele>
        <time>2013-05-09T10:31:20.000Z</time>
      </trkpt>
      <trkpt lat="43.86367" lon="7.25017">
        <ele>822</ele>
        <time>2013-05-09T10:31:38.020Z</time>
      </trkpt>
      <trkpt lat="43.86375" lon="7.25058">
        <ele>825</ele>
        <time>2013-05-09T10:31:58.010Z</time>
      </trkpt>
      <trkpt lat="43.8639" lon="7.25107">
        <ele>830</ele>
        <time>2013-05-09T10:32:22.010Z</time>
      </trkpt>
      <trkpt lat="43.86403" lon="7.25155">
        <ele>834</ele>
        <time>2013-05-09T10:32:46.020Z</time>
      </trkpt>
      <trkpt lat="43.86428" lon="7.25245">
        <ele>842</ele>
        <time>2013-05-09T10:33:30.020Z</time>
      </trkpt>
      <trkpt lat="43.86448" lon="7.25348">
        <ele>851</ele>
        <time>2013-05-09T10:34:16.020Z</time>
      </trkpt>
      <trkpt lat="43.86455" lon="7.2537">
        <ele>854</ele>
        <time>2013-05-09T10:34:40.010Z</time>
      </trkpt>
      <trkpt lat="43.86457" lon="7.2541">
        <ele>860</ele>
        <time>2013-05-09T10:37:10.030Z</time>
      </trkpt>
      <trkpt lat="43.8647" lon="7.25472">
        <ele>863</ele>
        <time>2013-05-09T10:37:40.020Z</time>
      </trkpt>
      <trkpt lat="43.86492" lon="7.25583">
        <ele>872</ele>
        <time>2013-05-09T10:38:32.020Z</time>
      </trkpt>
      <trkpt lat="43.8655" lon="7.25665">
        <ele>876</ele>
        <time>2013-05-09T10:39:24.020Z</time>
      </trkpt>
      <trkpt lat="43.86562" lon="7.25715">
        <ele>879</ele>
        <time>2013-05-09T10:39:46.040Z</time>
      </trkpt>
      <trkpt lat="43.86573" lon="7.25733">
        <ele>880</ele>
        <time>2013-05-09T10:40:44.030Z</time>
      </trkpt>
      <trkpt lat="43.86572" lon="7.25708">
        <ele>878</ele>
        <time>2013-05-09T10:43:27.030Z</time>
      </trkpt>
      <trkpt lat="43.86563" lon="7.2565">
        <ele>882</ele>
        <time>2013-05-09T10:43:53.030Z</time>
      </trkpt>
      <trkpt lat="43.8655" lon="7.25618">
        <ele>885</ele>
        <time>2013-05-09T10:44:11.040Z</time>
      </trkpt>
      <trkpt lat="43.86545" lon="7.25578">
        <ele>887</ele>
        <time>2013-05-09T10:44:35.030Z</time>
      </trkpt>
      <trkpt lat="43.86547" lon="7.25547">
        <ele>888</ele>
        <time>2013-05-09T10:44:54.030Z</time>
      </trkpt>
      <trkpt lat="43.86553" lon="7.25567">
        <ele>897</ele>
        <time>2013-05-09T10:45:18.040Z</time>
      </trkpt>
      <trkpt lat="43.86563" lon="7.25608">
        <ele>907</ele>
        <time>2013-05-09T10:46:13.030Z</time>
      </trkpt>
      <trkpt lat="43.86592" lon="7.25645">
        <ele>914</ele>
        <time>2013-05-09T10:46:45.040Z</time>
      </trkpt>
      <trkpt lat="43.86608" lon="7.25658">
        <ele>918</ele>
        <time>2013-05-09T10:47:47.050Z</time>
      </trkpt>
      <trkpt lat="43.86627" lon="7.25682">
        <ele>923</ele>
        <time>2013-05-09T10:48:16.040Z</time>
      </trkpt>
      <trkpt lat="43.86645" lon="7.257">
        <ele>921</ele>
        <time>2013-05-09T10:49:19.040Z</time>
      </trkpt>
      <trkpt lat="43.86663" lon="7.25728">
        <ele>926</ele>
        <time>2013-05-09T10:49:42.040Z</time>
      </trkpt>
      <trkpt lat="43.86675" lon="7.25752">
        <ele>931</ele>
        <time>2013-05-09T10:50:10.030Z</time>
      </trkpt>
      <trkpt lat="43.86678" lon="7.25773">
        <ele>931</ele>
        <time>2013-05-09T10:51:15.050Z</time>
      </trkpt>
      <trkpt lat="43.86665" lon="7.25798">
        <ele>922</ele>
        <time>2013-05-09T10:51:23.040Z</time>
      </trkpt>
      <trkpt lat="43.86662" lon="7.25833">
        <ele>917</ele>
        <time>2013-05-09T10:51:32.050Z</time>
      </trkpt>
      <trkpt lat="43.86675" lon="7.25865">
        <ele>921</ele>
        <time>2013-05-09T10:51:48.050Z</time>
      </trkpt>
      <trkpt lat="43.86687" lon="7.25897">
        <ele>916</ele>
        <time>2013-05-09T10:52:12.040Z</time>
      </trkpt>
      <trkpt lat="43.86707" lon="7.25923">
        <ele>910</ele>
        <time>2013-05-09T10:52:22.040Z</time>
      </trkpt>
      <trkpt lat="43.86687" lon="7.25943">
        <ele>901</ele>
        <time>2013-05-09T10:52:36.040Z</time>
      </trkpt>
      <trkpt lat="43.86675" lon="7.2598">
        <ele>891</ele>
        <time>2013-05-09T10:53:37.050Z</time>
      </trkpt>
      <trkpt lat="43.86668" lon="7.25997">
        <ele>883</ele>
        <time>2013-05-09T10:53:50.050Z</time>
      </trkpt>
      <trkpt lat="43.86657" lon="7.26018">
        <ele>871</ele>
        <time>2013-05-09T10:54:36.050Z</time>
      </trkpt>
      <trkpt lat="43.86637" lon="7.26035">
        <ele>861</ele>
        <time>2013-05-09T10:54:47.040Z</time>
      </trkpt>
      <trkpt lat="43.8662" lon="7.26055">
        <ele>850</ele>
        <time>2013-05-09T10:55:11.040Z</time>
      </trkpt>
      <trkpt lat="43.866" lon="7.2607">
        <ele>845</ele>
        <time>2013-05-09T10:57:22.050Z</time>
      </trkpt>
      <trkpt lat="43.86577" lon="7.26068">
        <ele>847</ele>
        <time>2013-05-09T10:58:33.060Z</time>
      </trkpt>
      <trkpt lat="43.86585" lon="7.26075">
        <ele>854</ele>
        <time>2013-05-09T11:18:11.060Z</time>
      </trkpt>
      <trkpt lat="43.8657" lon="7.26068">
        <ele>851</ele>
        <time>2013-05-09T11:25:48.070Z</time>
      </trkpt>
      <trkpt lat="43.8654" lon="7.26078">
        <ele>854</ele>
        <time>2013-05-09T11:26:27.080Z</time>
      </trkpt>
      <trkpt lat="43.86507" lon="7.26067">
        <ele>864</ele>
        <time>2013-05-09T11:27:04.080Z</time>
      </trkpt>
      <trkpt lat="43.86475" lon="7.2606">
        <ele>878</ele>
        <time>2013-05-09T11:27:26.070Z</time>
      </trkpt>
      <trkpt lat="43.86452" lon="7.26063">
        <ele>880</ele>
        <time>2013-05-09T11:27:38.070Z</time>
      </trkpt>
      <trkpt lat="43.86437" lon="7.2604">
        <ele>880</ele>
        <time>2013-05-09T11:27:55.080Z</time>
      </trkpt>
      <trkpt lat="43.8642" lon="7.2603">
        <ele>888</ele>
        <time>2013-05-09T11:28:09.080Z</time>
      </trkpt>
      <trkpt lat="43.86402" lon="7.2601">
        <ele>889</ele>
        <time>2013-05-09T11:28:19.080Z</time>
      </trkpt>
      <trkpt lat="43.86375" lon="7.25997">
        <ele>892</ele>
        <time>2013-05-09T11:28:31.080Z</time>
      </trkpt>
      <trkpt lat="43.8634" lon="7.25982">
        <ele>889</ele>
        <time>2013-05-09T11:28:45.080Z</time>
      </trkpt>
      <trkpt lat="43.86312" lon="7.25965">
        <ele>885</ele>
        <time>2013-05-09T11:28:58.080Z</time>
      </trkpt>
      <trkpt lat="43.8627" lon="7.25923">
        <ele>889</ele>
        <time>2013-05-09T11:29:18.690Z</time>
      </trkpt>
      <trkpt lat="43.86243" lon="7.25915">
        <ele>853</ele>
        <time>2013-05-09T11:29:23.090Z</time>
      </trkpt>
      <trkpt lat="43.86207" lon="7.25828">
        <ele>849</ele>
        <time>2013-05-09T11:29:42.070Z</time>
      </trkpt>
      <trkpt lat="43.86168" lon="7.25763">
        <ele>837</ele>
        <time>2013-05-09T11:30:21.090Z</time>
      </trkpt>
      <trkpt lat="43.86145" lon="7.25725">
        <ele>836</ele>
        <time>2013-05-09T11:31:37.090Z</time>
      </trkpt>
      <trkpt lat="43.86118" lon="7.25722">
        <ele>829</ele>
        <time>2013-05-09T11:31:43.090Z</time>
      </trkpt>
      <trkpt lat="43.86087" lon="7.25683">
        <ele>826</ele>
        <time>2013-05-09T11:31:53.070Z</time>
      </trkpt>
      <trkpt lat="43.86018" lon="7.25645">
        <ele>810</ele>
        <time>2013-05-09T11:32:09.090Z</time>
      </trkpt>
      <trkpt lat="43.85983" lon="7.25622">
        <ele>801</ele>
        <time>2013-05-09T11:32:17.080Z</time>
      </trkpt>
      <trkpt lat="43.85975" lon="7.25593">
        <ele>799</ele>
        <time>2013-05-09T11:32:24.080Z</time>
      </trkpt>
      <trkpt lat="43.8595" lon="7.25583">
        <ele>796</ele>
        <time>2013-05-09T11:32:29.100Z</time>
      </trkpt>
      <trkpt lat="43.85948" lon="7.25548">
        <ele>797</ele>
        <time>2013-05-09T11:32:38.080Z</time>
      </trkpt>
      <trkpt lat="43.85928" lon="7.2553">
        <ele>810</ele>
        <time>2013-05-09T11:32:55.090Z</time>
      </trkpt>
      <trkpt lat="43.85898" lon="7.25488">
        <ele>815</ele>
        <time>2013-05-09T11:33:13.090Z</time>
      </trkpt>
      <trkpt lat="43.8588" lon="7.25475">
        <ele>815</ele>
        <time>2013-05-09T11:33:22.090Z</time>
      </trkpt>
      <trkpt lat="43.85862" lon="7.25453">
        <ele>801</ele>
        <time>2013-05-09T11:33:38.090Z</time>
      </trkpt>
      <trkpt lat="43.85852" lon="7.25432">
        <ele>793</ele>
        <time>2013-05-09T11:33:59.090Z</time>
      </trkpt>
      <trkpt lat="43.85805" lon="7.25418">
        <ele>794</ele>
        <time>2013-05-09T11:34:16.090Z</time>
      </trkpt>
      <trkpt lat="43.85775" lon="7.25438">
        <ele>796</ele>
        <time>2013-05-09T11:34:39.090Z</time>
      </trkpt>
      <trkpt lat="43.85755" lon="7.25442">
        <ele>793</ele>
        <time>2013-05-09T11:34:53.090Z</time>
      </trkpt>
      <trkpt lat="43.85692" lon="7.25412">
        <ele>785</ele>
        <time>2013-05-09T11:35:27.100Z</time>
      </trkpt>
      <trkpt lat="43.85657" lon="7.25415">
        <ele>782</ele>
        <time>2013-05-09T11:35:34.100Z</time>
      </trkpt>
      <trkpt lat="43.85613" lon="7.254">
        <ele>780</ele>
        <time>2013-05-09T11:35:43.080Z</time>
      </trkpt>
      <trkpt lat="43.85583" lon="7.25385">
        <ele>779</ele>
        <time>2013-05-09T11:35:49.090Z</time>
      </trkpt>
      <trkpt lat="43.85538" lon="7.25372">
        <ele>780</ele>
        <time>2013-05-09T11:36:00.080Z</time>
      </trkpt>
      <trkpt lat="43.85508" lon="7.2536">
        <ele>778</ele>
        <time>2013-05-09T11:36:08.090Z</time>
      </trkpt>
      <trkpt lat="43.8548" lon="7.25352">
        <ele>777</ele>
        <time>2013-05-09T11:36:14.090Z</time>
      </trkpt>
      <trkpt lat="43.85457" lon="7.25342">
        <ele>779</ele>
        <time>2013-05-09T11:36:21.090Z</time>
      </trkpt>
      <trkpt lat="43.8542" lon="7.25343">
        <ele>779</ele>
        <time>2013-05-09T11:36:31.090Z</time>
      </trkpt>
      <trkpt lat="43.85332" lon="7.25315">
        <ele>768</ele>
        <time>2013-05-09T11:36:46.080Z</time>
      </trkpt>
      <trkpt lat="43.85218" lon="7.25343">
        <ele>756</ele>
        <time>2013-05-09T11:37:03.090Z</time>
      </trkpt>
      <trkpt lat="43.85193" lon="7.25348">
        <ele>752</ele>
        <time>2013-05-09T11:37:10.100Z</time>
      </trkpt>
      <trkpt lat="43.8518" lon="7.25317">
        <ele>746</ele>
        <time>2013-05-09T11:39:22.090Z</time>
      </trkpt>
      <trkpt lat="43.85143" lon="7.2529">
        <ele>740</ele>
        <time>2013-05-09T11:39:30.080Z</time>
      </trkpt>
      <trkpt lat="43.85113" lon="7.25257">
        <ele>732</ele>
        <time>2013-05-09T11:39:38.110Z</time>
      </trkpt>
      <trkpt lat="43.8508" lon="7.2524">
        <ele>724</ele>
        <time>2013-05-09T11:39:47.090Z</time>
      </trkpt>
      <trkpt lat="43.85053" lon="7.2522">
        <ele>716</ele>
        <time>2013-05-09T11:39:54.090Z</time>
      </trkpt>
      <trkpt lat="43.8503" lon="7.25218">
        <ele>714</ele>
        <time>2013-05-09T11:40:01.080Z</time>
      </trkpt>
      <trkpt lat="43.84997" lon="7.25207">
        <ele>711</ele>
        <time>2013-05-09T11:40:08.100Z</time>
      </trkpt>
      <trkpt lat="43.84968" lon="7.252">
        <ele>712</ele>
        <time>2013-05-09T11:40:15.100Z</time>
      </trkpt>
      <trkpt lat="43.84908" lon="7.25178">
        <ele>714</ele>
        <time>2013-05-09T11:40:36.100Z</time>
      </trkpt>
      <trkpt lat="43.84888" lon="7.2515">
        <ele>708</ele>
        <time>2013-05-09T11:40:44.100Z</time>
      </trkpt>
      <trkpt lat="43.84877" lon="7.25123">
        <ele>701</ele>
        <time>2013-05-09T11:40:50.100Z</time>
      </trkpt>
      <trkpt lat="43.84852" lon="7.25092">
        <ele>690</ele>
        <time>2013-05-09T11:41:00.090Z</time>
      </trkpt>
      <trkpt lat="43.84798" lon="7.25073">
        <ele>680</ele>
        <time>2013-05-09T11:41:11.100Z</time>
      </trkpt>
      <trkpt lat="43.84783" lon="7.251">
        <ele>677</ele>
        <time>2013-05-09T11:42:25.120Z</time>
      </trkpt>
      <trkpt lat="43.8476" lon="7.25122">
        <ele>680</ele>
        <time>2013-05-09T11:42:39.120Z</time>
      </trkpt>
      <trkpt lat="43.84748" lon="7.25147">
        <ele>683</ele>
        <time>2013-05-09T11:42:53.090Z</time>
      </trkpt>
      <trkpt lat="43.84748" lon="7.25175">
        <ele>687</ele>
        <time>2013-05-09T11:43:08.110Z</time>
      </trkpt>
      <trkpt lat="43.84738" lon="7.252">
        <ele>693</ele>
        <time>2013-05-09T11:43:28.120Z</time>
      </trkpt>
      <trkpt lat="43.84712" lon="7.25218">
        <ele>699</ele>
        <time>2013-05-09T11:43:53.090Z</time>
      </trkpt>
      <trkpt lat="43.84697" lon="7.25227">
        <ele>704</ele>
        <time>2013-05-09T11:44:11.110Z</time>
      </trkpt>
      <trkpt lat="43.84697" lon="7.25253">
        <ele>711</ele>
        <time>2013-05-09T11:44:32.100Z</time>
      </trkpt>
      <trkpt lat="43.84715" lon="7.25273">
        <ele>715</ele>
        <time>2013-05-09T11:46:19.100Z</time>
      </trkpt>
      <trkpt lat="43.8491" lon="7.2543">
        <ele>697</ele>
        <time>2013-05-09T11:47:03.100Z</time>
      </trkpt>
      <trkpt lat="43.84975" lon="7.25462">
        <ele>690</ele>
        <time>2013-05-09T11:47:12.110Z</time>
      </trkpt>
      <trkpt lat="43.85063" lon="7.25547">
        <ele>681</ele>
        <time>2013-05-09T11:47:25.100Z</time>
      </trkpt>
      <trkpt lat="43.85057" lon="7.25593">
        <ele>681</ele>
        <time>2013-05-09T11:47:35.110Z</time>
      </trkpt>
      <trkpt lat="43.85062" lon="7.25705">
        <ele>674</ele>
        <time>2013-05-09T11:47:52.110Z</time>
      </trkpt>
      <trkpt lat="43.85072" lon="7.25747">
        <ele>675</ele>
        <time>2013-05-09T11:47:57.100Z</time>
      </trkpt>
      <trkpt lat="43.85075" lon="7.25797">
        <ele>674</ele>
        <time>2013-05-09T11:48:05.110Z</time>
      </trkpt>
      <trkpt lat="43.8509" lon="7.25832">
        <ele>673</ele>
        <time>2013-05-09T11:48:11.100Z</time>
      </trkpt>
      <trkpt lat="43.85075" lon="7.2585">
        <ele>675</ele>
        <time>2013-05-09T11:48:24.110Z</time>
      </trkpt>
      <trkpt lat="43.85055" lon="7.25862">
        <ele>680</ele>
        <time>2013-05-09T11:48:38.110Z</time>
      </trkpt>
      <trkpt lat="43.85035" lon="7.25855">
        <ele>683</ele>
        <time>2013-05-09T11:48:53.110Z</time>
      </trkpt>
      <trkpt lat="43.85017" lon="7.25845">
        <ele>686</ele>
        <time>2013-05-09T11:49:10.100Z</time>
      </trkpt>
      <trkpt lat="43.85007" lon="7.25868">
        <ele>692</ele>
        <time>2013-05-09T11:49:33.100Z</time>
      </trkpt>
      <trkpt lat="43.84997" lon="7.25882">
        <ele>697</ele>
        <time>2013-05-09T11:50:18.110Z</time>
      </trkpt>
      <trkpt lat="43.84987" lon="7.25893">
        <ele>709</ele>
        <time>2013-05-09T11:50:58.110Z</time>
      </trkpt>
      <trkpt lat="43.84972" lon="7.2588">
        <ele>715</ele>
        <time>2013-05-09T11:51:33.110Z</time>
      </trkpt>
      <trkpt lat="43.8496" lon="7.25882">
        <ele>718</ele>
        <time>2013-05-09T11:52:09.120Z</time>
      </trkpt>
      <trkpt lat="43.84945" lon="7.25892">
        <ele>724</ele>
        <time>2013-05-09T11:52:43.120Z</time>
      </trkpt>
      <trkpt lat="43.84922" lon="7.25893">
        <ele>728</ele>
        <time>2013-05-09T11:53:15.120Z</time>
      </trkpt>
      <trkpt lat="43.84902" lon="7.25905">
        <ele>725</ele>
        <time>2013-05-09T11:56:11.120Z</time>
      </trkpt>
      <trkpt lat="43.84882" lon="7.25935">
        <ele>726</ele>
        <time>2013-05-09T11:56:31.120Z</time>
      </trkpt>
      <trkpt lat="43.84873" lon="7.25972">
        <ele>727</ele>
        <time>2013-05-09T11:56:50.120Z</time>
      </trkpt>
      <trkpt lat="43.84862" lon="7.26">
        <ele>727</ele>
        <time>2013-05-09T11:57:04.140Z</time>
      </trkpt>
      <trkpt lat="43.8485" lon="7.26013">
        <ele>728</ele>
        <time>2013-05-09T11:57:30.120Z</time>
      </trkpt>
      <trkpt lat="43.84828" lon="7.26023">
        <ele>732</ele>
        <time>2013-05-09T11:57:46.120Z</time>
      </trkpt>
      <trkpt lat="43.8481" lon="7.26027">
        <ele>737</ele>
        <time>2013-05-09T11:58:02.130Z</time>
      </trkpt>
      <trkpt lat="43.84757" lon="7.2607">
        <ele>741</ele>
        <time>2013-05-09T11:59:08.140Z</time>
      </trkpt>
      <trkpt lat="43.8471" lon="7.261">
        <ele>749</ele>
        <time>2013-05-09T11:59:48.140Z</time>
      </trkpt>
      <trkpt lat="43.84693" lon="7.26112">
        <ele>752</ele>
        <time>2013-05-09T12:00:06.130Z</time>
      </trkpt>
      <trkpt lat="43.8468" lon="7.26133">
        <ele>757</ele>
        <time>2013-05-09T12:00:37.140Z</time>
      </trkpt>
      <trkpt lat="43.84665" lon="7.26143">
        <ele>754</ele>
        <time>2013-05-09T12:02:53.140Z</time>
      </trkpt>
      <trkpt lat="43.84615" lon="7.26155">
        <ele>763</ele>
        <time>2013-05-09T12:03:37.120Z</time>
      </trkpt>
      <trkpt lat="43.84605" lon="7.26137">
        <ele>763</ele>
        <time>2013-05-09T12:03:52.120Z</time>
      </trkpt>
      <trkpt lat="43.84607" lon="7.2616">
        <ele>764</ele>
        <time>2013-05-09T12:04:07.130Z</time>
      </trkpt>
      <trkpt lat="43.84593" lon="7.26185">
        <ele>766</ele>
        <time>2013-05-09T12:05:31.130Z</time>
      </trkpt>
      <trkpt lat="43.84582" lon="7.26227">
        <ele>771</ele>
        <time>2013-05-09T12:05:52.130Z</time>
      </trkpt>
      <trkpt lat="43.84568" lon="7.26258">
        <ele>774</ele>
        <time>2013-05-09T12:06:09.120Z</time>
      </trkpt>
      <trkpt lat="43.84565" lon="7.26282">
        <ele>782</ele>
        <time>2013-05-09T12:06:22.130Z</time>
      </trkpt>
      <trkpt lat="43.84553" lon="7.26298">
        <ele>784</ele>
        <time>2013-05-09T12:06:44.130Z</time>
      </trkpt>
      <trkpt lat="43.84535" lon="7.26327">
        <ele>787</ele>
        <time>2013-05-09T12:07:32.130Z</time>
      </trkpt>
      <trkpt lat="43.84503" lon="7.26363">
        <ele>786</ele>
        <time>2013-05-09T12:09:00.130Z</time>
      </trkpt>
      <trkpt lat="43.84477" lon="7.26382">
        <ele>784</ele>
        <time>2013-05-09T12:09:08.130Z</time>
      </trkpt>
      <trkpt lat="43.8444" lon="7.26438">
        <ele>791</ele>
        <time>2013-05-09T12:10:54.130Z</time>
      </trkpt>
      <trkpt lat="43.8441" lon="7.2646">
        <ele>791</ele>
        <time>2013-05-09T12:11:10.130Z</time>
      </trkpt>
      <trkpt lat="43.84395" lon="7.26482">
        <ele>794</ele>
        <time>2013-05-09T12:11:22.130Z</time>
      </trkpt>
      <trkpt lat="43.84375" lon="7.26505">
        <ele>796</ele>
        <time>2013-05-09T12:12:03.140Z</time>
      </trkpt>
      <trkpt lat="43.8436" lon="7.26527">
        <ele>796</ele>
        <time>2013-05-09T12:12:18.130Z</time>
      </trkpt>
      <trkpt lat="43.84367" lon="7.26548">
        <ele>802</ele>
        <time>2013-05-09T12:12:33.140Z</time>
      </trkpt>
      <trkpt lat="43.84377" lon="7.26583">
        <ele>802</ele>
        <time>2013-05-09T12:15:05.140Z</time>
      </trkpt>
      <trkpt lat="43.84393" lon="7.26615">
        <ele>811</ele>
        <time>2013-05-09T12:15:26.140Z</time>
      </trkpt>
      <trkpt lat="43.84387" lon="7.2664">
        <ele>819</ele>
        <time>2013-05-09T12:15:57.140Z</time>
      </trkpt>
      <trkpt lat="43.84375" lon="7.26653">
        <ele>824</ele>
        <time>2013-05-09T12:16:10.140Z</time>
      </trkpt>
      <trkpt lat="43.84348" lon="7.26662">
        <ele>823</ele>
        <time>2013-05-09T12:16:30.140Z</time>
      </trkpt>
      <trkpt lat="43.84323" lon="7.26678">
        <ele>826</ele>
        <time>2013-05-09T12:16:50.140Z</time>
      </trkpt>
      <trkpt lat="43.84285" lon="7.26702">
        <ele>829</ele>
        <time>2013-05-09T12:17:35.140Z</time>
      </trkpt>
      <trkpt lat="43.84257" lon="7.26722">
        <ele>833</ele>
        <time>2013-05-09T12:18:16.150Z</time>
      </trkpt>
      <trkpt lat="43.84238" lon="7.26738">
        <ele>836</ele>
        <time>2013-05-09T12:18:59.140Z</time>
      </trkpt>
      <trkpt lat="43.8422" lon="7.26757">
        <ele>837</ele>
        <time>2013-05-09T12:20:29.130Z</time>
      </trkpt>
      <trkpt lat="43.84205" lon="7.26777">
        <ele>840</ele>
        <time>2013-05-09T12:21:37.150Z</time>
      </trkpt>
      <trkpt lat="43.8419" lon="7.26798">
        <ele>840</ele>
        <time>2013-05-09T12:24:54.160Z</time>
      </trkpt>
      <trkpt lat="43.84167" lon="7.2682">
        <ele>845</ele>
        <time>2013-05-09T12:25:19.160Z</time>
      </trkpt>
      <trkpt lat="43.84153" lon="7.26838">
        <ele>850</ele>
        <time>2013-05-09T12:25:33.150Z</time>
      </trkpt>
      <trkpt lat="43.84138" lon="7.26852">
        <ele>850</ele>
        <time>2013-05-09T12:29:08.150Z</time>
      </trkpt>
      <trkpt lat="43.84115" lon="7.26877">
        <ele>860</ele>
        <time>2013-05-09T12:29:56.150Z</time>
      </trkpt>
      <trkpt lat="43.84077" lon="7.26912">
        <ele>871</ele>
        <time>2013-05-09T12:30:55.140Z</time>
      </trkpt>
      <trkpt lat="43.84058" lon="7.26935">
        <ele>876</ele>
        <time>2013-05-09T12:31:13.160Z</time>
      </trkpt>
      <trkpt lat="43.84037" lon="7.26968">
        <ele>878</ele>
        <time>2013-05-09T12:32:00.160Z</time>
      </trkpt>
      <trkpt lat="43.84027" lon="7.2699">
        <ele>883</ele>
        <time>2013-05-09T12:32:15.160Z</time>
      </trkpt>
      <trkpt lat="43.84012" lon="7.27013">
        <ele>887</ele>
        <time>2013-05-09T12:32:31.160Z</time>
      </trkpt>
      <trkpt lat="43.83992" lon="7.27038">
        <ele>888</ele>
        <time>2013-05-09T12:32:45.160Z</time>
      </trkpt>
      <trkpt lat="43.83972" lon="7.27058">
        <ele>892</ele>
        <time>2013-05-09T12:33:12.150Z</time>
      </trkpt>
      <trkpt lat="43.83957" lon="7.2707">
        <ele>894</ele>
        <time>2013-05-09T12:33:52.150Z</time>
      </trkpt>
      <trkpt lat="43.83937" lon="7.2709">
        <ele>878</ele>
        <time>2013-05-09T12:39:43.160Z</time>
      </trkpt>
      <trkpt lat="43.83855" lon="7.27127">
        <ele>880</ele>
        <time>2013-05-09T12:40:16.160Z</time>
      </trkpt>
      <trkpt lat="43.8383" lon="7.2712">
        <ele>883</ele>
        <time>2013-05-09T12:40:25.160Z</time>
      </trkpt>
      <trkpt lat="43.83815" lon="7.27098">
        <ele>885</ele>
        <time>2013-05-09T12:40:35.160Z</time>
      </trkpt>
      <trkpt lat="43.83795" lon="7.27088">
        <ele>888</ele>
        <time>2013-05-09T12:40:47.160Z</time>
      </trkpt>
      <trkpt lat="43.8377" lon="7.27085">
        <ele>892</ele>
        <time>2013-05-09T12:41:20.160Z</time>
      </trkpt>
      <trkpt lat="43.8375" lon="7.27087">
        <ele>902</ele>
        <time>2013-05-09T12:41:37.170Z</time>
      </trkpt>
      <trkpt lat="43.83728" lon="7.27092">
        <ele>909</ele>
        <time>2013-05-09T12:41:54.160Z</time>
      </trkpt>
      <trkpt lat="43.8371" lon="7.27105">
        <ele>914</ele>
        <time>2013-05-09T12:42:10.170Z</time>
      </trkpt>
      <trkpt lat="43.83677" lon="7.27112">
        <ele>920</ele>
        <time>2013-05-09T12:42:35.160Z</time>
      </trkpt>
      <trkpt lat="43.83657" lon="7.27122">
        <ele>924</ele>
        <time>2013-05-09T12:42:50.160Z</time>
      </trkpt>
      <trkpt lat="43.8364" lon="7.27135">
        <ele>924</ele>
        <time>2013-05-09T12:43:00.160Z</time>
      </trkpt>
      <trkpt lat="43.83618" lon="7.27147">
        <ele>925</ele>
        <time>2013-05-09T12:43:12.160Z</time>
      </trkpt>
      <trkpt lat="43.83537" lon="7.27153">
        <ele>935</ele>
        <time>2013-05-09T12:43:47.160Z</time>
      </trkpt>
      <trkpt lat="43.8352" lon="7.27162">
        <ele>936</ele>
        <time>2013-05-09T12:44:07.170Z</time>
      </trkpt>
      <trkpt lat="43.83483" lon="7.2718">
        <ele>943</ele>
        <time>2013-05-09T12:44:42.170Z</time>
      </trkpt>
      <trkpt lat="43.83453" lon="7.27198">
        <ele>953</ele>
        <time>2013-05-09T12:45:07.170Z</time>
      </trkpt>
      <trkpt lat="43.83433" lon="7.27207">
        <ele>926</ele>
        <time>2013-05-09T12:47:07.180Z</time>
      </trkpt>
      <trkpt lat="43.83373" lon="7.27292">
        <ele>913</ele>
        <time>2013-05-09T12:47:32.190Z</time>
      </trkpt>
      <trkpt lat="43.83352" lon="7.27327">
        <ele>908</ele>
        <time>2013-05-09T12:47:41.170Z</time>
      </trkpt>
      <trkpt lat="43.83337" lon="7.27387">
        <ele>898</ele>
        <time>2013-05-09T12:48:23.180Z</time>
      </trkpt>
      <trkpt lat="43.83312" lon="7.2739">
        <ele>892</ele>
        <time>2013-05-09T12:49:09.180Z</time>
      </trkpt>
      <trkpt lat="43.83302" lon="7.27363">
        <ele>884</ele>
        <time>2013-05-09T12:49:16.170Z</time>
      </trkpt>
      <trkpt lat="43.83275" lon="7.2734">
        <ele>871</ele>
        <time>2013-05-09T12:49:26.180Z</time>
      </trkpt>
      <trkpt lat="43.83258" lon="7.27313">
        <ele>857</ele>
        <time>2013-05-09T12:49:38.180Z</time>
      </trkpt>
      <trkpt lat="43.83213" lon="7.27293">
        <ele>841</ele>
        <time>2013-05-09T12:49:52.180Z</time>
      </trkpt>
      <trkpt lat="43.83172" lon="7.27272">
        <ele>836</ele>
        <time>2013-05-09T12:50:03.170Z</time>
      </trkpt>
      <trkpt lat="43.83133" lon="7.2725">
        <ele>827</ele>
        <time>2013-05-09T12:50:12.170Z</time>
      </trkpt>
      <trkpt lat="43.83112" lon="7.27242">
        <ele>832</ele>
        <time>2013-05-09T12:50:27.180Z</time>
      </trkpt>
      <trkpt lat="43.83062" lon="7.27225">
        <ele>819</ele>
        <time>2013-05-09T12:50:47.180Z</time>
      </trkpt>
      <trkpt lat="43.83" lon="7.27235">
        <ele>804</ele>
        <time>2013-05-09T12:51:01.170Z</time>
      </trkpt>
      <trkpt lat="43.8294" lon="7.27222">
        <ele>794</ele>
        <time>2013-05-09T12:51:12.170Z</time>
      </trkpt>
      <trkpt lat="43.82883" lon="7.27187">
        <ele>785</ele>
        <time>2013-05-09T12:51:22.170Z</time>
      </trkpt>
      <trkpt lat="43.82858" lon="7.27168">
        <ele>785</ele>
        <time>2013-05-09T12:51:29.170Z</time>
      </trkpt>
      <trkpt lat="43.8281" lon="7.27152">
        <ele>773</ele>
        <time>2013-05-09T12:51:41.170Z</time>
      </trkpt>
      <trkpt lat="43.8272" lon="7.27165">
        <ele>747</ele>
        <time>2013-05-09T12:52:00.170Z</time>
      </trkpt>
      <trkpt lat="43.82682" lon="7.27152">
        <ele>737</ele>
        <time>2013-05-09T12:52:09.170Z</time>
      </trkpt>
      <trkpt lat="43.8265" lon="7.27153">
        <ele>727</ele>
        <time>2013-05-09T12:52:20.190Z</time>
      </trkpt>
      <trkpt lat="43.82638" lon="7.27137">
        <ele>719</ele>
        <time>2013-05-09T12:52:30.180Z</time>
      </trkpt>
      <trkpt lat="43.82643" lon="7.27113">
        <ele>712</ele>
        <time>2013-05-09T12:53:35.170Z</time>
      </trkpt>
      <trkpt lat="43.82643" lon="7.27078">
        <ele>701</ele>
        <time>2013-05-09T12:56:57.180Z</time>
      </trkpt>
      <trkpt lat="43.8266" lon="7.27052">
        <ele>695</ele>
        <time>2013-05-09T12:57:03.170Z</time>
      </trkpt>
      <trkpt lat="43.8267" lon="7.27032">
        <ele>693</ele>
        <time>2013-05-09T12:59:38.180Z</time>
      </trkpt>
      <trkpt lat="43.82658" lon="7.27042">
        <ele>695</ele>
        <time>2013-05-09T13:00:42.180Z</time>
      </trkpt>
      <trkpt lat="43.8264" lon="7.27037">
        <ele>691</ele>
        <time>2013-05-09T13:02:03.190Z</time>
      </trkpt>
      <trkpt lat="43.8265" lon="7.27">
        <ele>681</ele>
        <time>2013-05-09T13:02:12.190Z</time>
      </trkpt>
      <trkpt lat="43.82642" lon="7.26967">
        <ele>666</ele>
        <time>2013-05-09T13:02:26.190Z</time>
      </trkpt>
      <trkpt lat="43.82605" lon="7.26962">
        <ele>664</ele>
        <time>2013-05-09T13:02:32.180Z</time>
      </trkpt>
      <trkpt lat="43.82592" lon="7.26978">
        <ele>667</ele>
        <time>2013-05-09T13:02:47.190Z</time>
      </trkpt>
      <trkpt lat="43.82573" lon="7.2699">
        <ele>666</ele>
        <time>2013-05-09T13:03:21.200Z</time>
      </trkpt>
      <trkpt lat="43.82548" lon="7.27012">
        <ele>662</ele>
        <time>2013-05-09T13:03:29.190Z</time>
      </trkpt>
      <trkpt lat="43.82518" lon="7.27005">
        <ele>660</ele>
        <time>2013-05-09T13:03:57.190Z</time>
      </trkpt>
      <trkpt lat="43.82493" lon="7.27012">
        <ele>659</ele>
        <time>2013-05-09T13:04:09.190Z</time>
      </trkpt>
      <trkpt lat="43.82453" lon="7.27032">
        <ele>661</ele>
        <time>2013-05-09T13:04:25.190Z</time>
      </trkpt>
      <trkpt lat="43.82427" lon="7.27037">
        <ele>663</ele>
        <time>2013-05-09T13:04:37.190Z</time>
      </trkpt>
      <trkpt lat="43.82395" lon="7.27018">
        <ele>668</ele>
        <time>2013-05-09T13:04:50.200Z</time>
      </trkpt>
      <trkpt lat="43.82378" lon="7.26983">
        <ele>670</ele>
        <time>2013-05-09T13:05:08.190Z</time>
      </trkpt>
      <trkpt lat="43.82347" lon="7.26957">
        <ele>662</ele>
        <time>2013-05-09T13:05:16.190Z</time>
      </trkpt>
      <trkpt lat="43.82323" lon="7.26983">
        <ele>661</ele>
        <time>2013-05-09T13:05:23.190Z</time>
      </trkpt>
      <trkpt lat="43.82322" lon="7.27035">
        <ele>661</ele>
        <time>2013-05-09T13:05:29.780Z</time>
      </trkpt>
      <trkpt lat="43.82295" lon="7.27048">
        <ele>659</ele>
        <time>2013-05-09T13:05:34.190Z</time>
      </trkpt>
      <trkpt lat="43.82278" lon="7.27057">
        <ele>651</ele>
        <time>2013-05-09T13:05:40.190Z</time>
      </trkpt>
      <trkpt lat="43.8229" lon="7.27022">
        <ele>641</ele>
        <time>2013-05-09T13:05:52.190Z</time>
      </trkpt>
      <trkpt lat="43.82267" lon="7.27017">
        <ele>632</ele>
        <time>2013-05-09T13:06:22.190Z</time>
      </trkpt>
      <trkpt lat="43.82218" lon="7.27025">
        <ele>618</ele>
        <time>2013-05-09T13:06:35.200Z</time>
      </trkpt>
      <trkpt lat="43.822" lon="7.27035">
        <ele>614</ele>
        <time>2013-05-09T13:06:39.190Z</time>
      </trkpt>
      <trkpt lat="43.82208" lon="7.27015">
        <ele>608</ele>
        <time>2013-05-09T13:06:58.200Z</time>
      </trkpt>
      <trkpt lat="43.82185" lon="7.27013">
        <ele>602</ele>
        <time>2013-05-09T13:07:54.200Z</time>
      </trkpt>
      <trkpt lat="43.8217" lon="7.27013">
        <ele>605</ele>
        <time>2013-05-09T13:08:06.200Z</time>
      </trkpt>
      <trkpt lat="43.82167" lon="7.26967">
        <ele>615</ele>
        <time>2013-05-09T13:08:28.210Z</time>
      </trkpt>
      <trkpt lat="43.82162" lon="7.26937">
        <ele>610</ele>
        <time>2013-05-09T13:09:01.210Z</time>
      </trkpt>
      <trkpt lat="43.82137" lon="7.26845">
        <ele>600</ele>
        <time>2013-05-09T13:09:52.200Z</time>
      </trkpt>
      <trkpt lat="43.82127" lon="7.26798">
        <ele>596</ele>
        <time>2013-05-09T13:10:02.210Z</time>
      </trkpt>
      <trkpt lat="43.82135" lon="7.26743">
        <ele>589</ele>
        <time>2013-05-09T13:10:13.200Z</time>
      </trkpt>
      <trkpt lat="43.82135" lon="7.26697">
        <ele>589</ele>
        <time>2013-05-09T13:10:26.200Z</time>
      </trkpt>
      <trkpt lat="43.82078" lon="7.26643">
        <ele>574</ele>
        <time>2013-05-09T13:12:21.200Z</time>
      </trkpt>
      <trkpt lat="43.82015" lon="7.26627">
        <ele>562</ele>
        <time>2013-05-09T13:12:32.200Z</time>
      </trkpt>
      <trkpt lat="43.81915" lon="7.26648">
        <ele>544</ele>
        <time>2013-05-09T13:14:04.200Z</time>
      </trkpt>
      <trkpt lat="43.81868" lon="7.26665">
        <ele>535</ele>
        <time>2013-05-09T13:14:20.200Z</time>
      </trkpt>
      <trkpt lat="43.81842" lon="7.26683">
        <ele>529</ele>
        <time>2013-05-09T13:14:29.200Z</time>
      </trkpt>
      <trkpt lat="43.81798" lon="7.26727">
        <ele>525</ele>
        <time>2013-05-09T13:15:10.200Z</time>
      </trkpt>
      <trkpt lat="43.8176" lon="7.2675">
        <ele>521</ele>
        <time>2013-05-09T13:15:21.200Z</time>
      </trkpt>
      <trkpt lat="43.81732" lon="7.26772">
        <ele>518</ele>
        <time>2013-05-09T13:15:29.200Z</time>
      </trkpt>
      <trkpt lat="43.81693" lon="7.26772">
        <ele>511</ele>
        <time>2013-05-09T13:15:38.210Z</time>
      </trkpt>
      <trkpt lat="43.81652" lon="7.2679">
        <ele>508</ele>
        <time>2013-05-09T13:15:48.210Z</time>
      </trkpt>
      <trkpt lat="43.81625" lon="7.26805">
        <ele>506</ele>
        <time>2013-05-09T13:16:55.200Z</time>
      </trkpt>
      <trkpt lat="43.81587" lon="7.26793">
        <ele>499</ele>
        <time>2013-05-09T13:17:05.210Z</time>
      </trkpt>
      <trkpt lat="43.81517" lon="7.26803">
        <ele>494</ele>
        <time>2013-05-09T13:17:20.220Z</time>
      </trkpt>
      <trkpt lat="43.81508" lon="7.26782">
        <ele>500</ele>
        <time>2013-05-09T13:18:37.210Z</time>
      </trkpt>
      <trkpt lat="43.81487" lon="7.26763">
        <ele>497</ele>
        <time>2013-05-09T13:18:46.210Z</time>
      </trkpt>
      <trkpt lat="43.8144" lon="7.2677">
        <ele>491</ele>
        <time>2013-05-09T13:18:55.210Z</time>
      </trkpt>
      <trkpt lat="43.8134" lon="7.26738">
        <ele>485</ele>
        <time>2013-05-09T13:19:11.210Z</time>
      </trkpt>
      <trkpt lat="43.81258" lon="7.26775">
        <ele>477</ele>
        <time>2013-05-09T13:19:22.220Z</time>
      </trkpt>
      <trkpt lat="43.81193" lon="7.26773">
        <ele>473</ele>
        <time>2013-05-09T13:19:30.210Z</time>
      </trkpt>
      <trkpt lat="43.8114" lon="7.26768">
        <ele>470</ele>
        <time>2013-05-09T13:19:37.210Z</time>
      </trkpt>
      <trkpt lat="43.81088" lon="7.2679">
        <ele>466</ele>
        <time>2013-05-09T13:19:44.210Z</time>
      </trkpt>
      <trkpt lat="43.81018" lon="7.26783">
        <ele>461</ele>
        <time>2013-05-09T13:19:52.210Z</time>
      </trkpt>
      <trkpt lat="43.80862" lon="7.26822">
        <ele>449</ele>
        <time>2013-05-09T13:20:09.220Z</time>
      </trkpt>
      <trkpt lat="43.80808" lon="7.26803">
        <ele>446</ele>
        <time>2013-05-09T13:20:15.210Z</time>
      </trkpt>
      <trkpt lat="43.80697" lon="7.26845">
        <ele>438</ele>
        <time>2013-05-09T13:20:28.210Z</time>
      </trkpt>
      <trkpt lat="43.80543" lon="7.26917">
        <ele>427</ele>
        <time>2013-05-09T13:20:46.210Z</time>
      </trkpt>
      <trkpt lat="43.80397" lon="7.26922">
        <ele>419</ele>
        <time>2013-05-09T13:21:03.210Z</time>
      </trkpt>
      <trkpt lat="43.80298" lon="7.27003">
        <ele>414</ele>
        <time>2013-05-09T13:21:19.220Z</time>
      </trkpt>
      <trkpt lat="43.80258" lon="7.27035">
        <ele>411</ele>
        <time>2013-05-09T13:21:26.220Z</time>
      </trkpt>
      <trkpt lat="43.8022" lon="7.27098">
        <ele>406</ele>
        <time>2013-05-09T13:21:34.210Z</time>
      </trkpt>
      <trkpt lat="43.8006" lon="7.27238">
        <ele>393</ele>
        <time>2013-05-09T13:21:55.210Z</time>
      </trkpt>
      <trkpt lat="43.80025" lon="7.27318">
        <ele>389</ele>
        <time>2013-05-09T13:22:03.210Z</time>
      </trkpt>
      <trkpt lat="43.80013" lon="7.27322">
        <ele>387</ele>
        <time>2013-05-09T13:25:20.220Z</time>
      </trkpt>
      <trkpt lat="43.80037" lon="7.27245">
        <ele>386</ele>
        <time>2013-05-09T13:34:57.240Z</time>
      </trkpt>
      <trkpt lat="43.80105" lon="7.27172">
        <ele>390</ele>
        <time>2013-05-09T13:35:23.240Z</time>
      </trkpt>
      <trkpt lat="43.80332" lon="7.26868">
        <ele>397</ele>
        <time>2013-05-09T13:37:19.230Z</time>
      </trkpt>
      <trkpt lat="43.8037" lon="7.2684">
        <ele>401</ele>
        <time>2013-05-09T13:37:35.230Z</time>
      </trkpt>
      <trkpt lat="43.80423" lon="7.26827">
        <ele>405</ele>
        <time>2013-05-09T13:37:55.240Z</time>
      </trkpt>
      <trkpt lat="43.80438" lon="7.2679">
        <ele>407</ele>
        <time>2013-05-09T13:38:12.240Z</time>
      </trkpt>
      <trkpt lat="43.80453" lon="7.26758">
        <ele>412</ele>
        <time>2013-05-09T13:43:27.240Z</time>
      </trkpt>
      <trkpt lat="43.80452" lon="7.26715">
        <ele>416</ele>
        <time>2013-05-09T13:43:45.230Z</time>
      </trkpt>
      <trkpt lat="43.80443" lon="7.26743">
        <ele>419</ele>
        <time>2013-05-09T13:44:05.240Z</time>
      </trkpt>
      <trkpt lat="43.80427" lon="7.26757">
        <ele>420</ele>
        <time>2013-05-09T13:44:17.240Z</time>
      </trkpt>
      <trkpt lat="43.80405" lon="7.26732">
        <ele>421</ele>
        <time>2013-05-09T13:44:33.240Z</time>
      </trkpt>
      <trkpt lat="43.80393" lon="7.26672">
        <ele>418</ele>
        <time>2013-05-09T13:44:47.240Z</time>
      </trkpt>
      <trkpt lat="43.80387" lon="7.26623">
        <ele>418</ele>
        <time>2013-05-09T13:44:58.240Z</time>
      </trkpt>
      <trkpt lat="43.804" lon="7.26563">
        <ele>422</ele>
        <time>2013-05-09T13:45:18.240Z</time>
      </trkpt>
      <trkpt lat="43.80408" lon="7.26477">
        <ele>427</ele>
        <time>2013-05-09T13:45:50.240Z</time>
      </trkpt>
      <trkpt lat="43.80413" lon="7.26433">
        <ele>429</ele>
        <time>2013-05-09T13:47:13.230Z</time>
      </trkpt>
      <trkpt lat="43.8044" lon="7.26337">
        <ele>441</ele>
        <time>2013-05-09T13:47:53.250Z</time>
      </trkpt>
      <trkpt lat="43.80437" lon="7.26307">
        <ele>441</ele>
        <time>2013-05-09T13:48:05.250Z</time>
      </trkpt>
      <trkpt lat="43.80453" lon="7.26282">
        <ele>443</ele>
        <time>2013-05-09T13:48:19.250Z</time>
      </trkpt>
      <trkpt lat="43.8046" lon="7.26247">
        <ele>442</ele>
        <time>2013-05-09T13:48:34.240Z</time>
      </trkpt>
      <trkpt lat="43.80462" lon="7.26195">
        <ele>441</ele>
        <time>2013-05-09T13:48:44.240Z</time>
      </trkpt>
      <trkpt lat="43.80465" lon="7.2617">
        <ele>441</ele>
        <time>2013-05-09T13:49:00.240Z</time>
      </trkpt>
      <trkpt lat="43.80435" lon="7.26178">
        <ele>445</ele>
        <time>2013-05-09T13:49:38.250Z</time>
      </trkpt>
      <trkpt lat="43.80392" lon="7.26155">
        <ele>448</ele>
        <time>2013-05-09T13:50:01.240Z</time>
      </trkpt>
      <trkpt lat="43.80372" lon="7.26132">
        <ele>452</ele>
        <time>2013-05-09T13:50:18.250Z</time>
      </trkpt>
      <trkpt lat="43.80355" lon="7.26118">
        <ele>458</ele>
        <time>2013-05-09T13:50:36.250Z</time>
      </trkpt>
      <trkpt lat="43.80328" lon="7.26107">
        <ele>471</ele>
        <time>2013-05-09T13:50:56.260Z</time>
      </trkpt>
      <trkpt lat="43.8032" lon="7.26083">
        <ele>466</ele>
        <time>2013-05-09T13:51:15.260Z</time>
      </trkpt>
      <trkpt lat="43.80288" lon="7.26058">
        <ele>468</ele>
        <time>2013-05-09T13:51:40.250Z</time>
      </trkpt>
      <trkpt lat="43.80273" lon="7.26053">
        <ele>473</ele>
        <time>2013-05-09T13:51:53.250Z</time>
      </trkpt>
      <trkpt lat="43.8026" lon="7.26038">
        <ele>480</ele>
        <time>2013-05-09T13:52:07.250Z</time>
      </trkpt>
      <trkpt lat="43.8024" lon="7.26028">
        <ele>486</ele>
        <time>2013-05-09T13:52:22.250Z</time>
      </trkpt>
      <trkpt lat="43.80227" lon="7.26015">
        <ele>493</ele>
        <time>2013-05-09T13:53:00.240Z</time>
      </trkpt>
      <trkpt lat="43.8021" lon="7.26005">
        <ele>496</ele>
        <time>2013-05-09T13:53:37.260Z</time>
      </trkpt>
      <trkpt lat="43.80198" lon="7.2599">
        <ele>496</ele>
        <time>2013-05-09T13:53:51.260Z</time>
      </trkpt>
      <trkpt lat="43.80185" lon="7.25967">
        <ele>495</ele>
        <time>2013-05-09T13:54:07.260Z</time>
      </trkpt>
      <trkpt lat="43.80158" lon="7.2595">
        <ele>500</ele>
        <time>2013-05-09T13:54:20.270Z</time>
      </trkpt>
      <trkpt lat="43.80138" lon="7.25932">
        <ele>500</ele>
        <time>2013-05-09T13:54:34.260Z</time>
      </trkpt>
      <trkpt lat="43.80123" lon="7.25902">
        <ele>505</ele>
        <time>2013-05-09T13:54:54.260Z</time>
      </trkpt>
      <trkpt lat="43.80117" lon="7.25878">
        <ele>505</ele>
        <time>2013-05-09T13:55:08.280Z</time>
      </trkpt>
      <trkpt lat="43.80117" lon="7.2586">
        <ele>502</ele>
        <time>2013-05-09T13:56:50.260Z</time>
      </trkpt>
      <trkpt lat="43.80102" lon="7.25842">
        <ele>501</ele>
        <time>2013-05-09T13:56:58.280Z</time>
      </trkpt>
      <trkpt lat="43.80085" lon="7.25857">
        <ele>487</ele>
        <time>2013-05-09T13:57:17.860Z</time>
      </trkpt>
      <trkpt lat="43.80067" lon="7.2588">
        <ele>489</ele>
        <time>2013-05-09T13:57:27.260Z</time>
      </trkpt>
      <trkpt lat="43.80035" lon="7.25895">
        <ele>490</ele>
        <time>2013-05-09T13:57:41.260Z</time>
      </trkpt>
      <trkpt lat="43.80005" lon="7.25877">
        <ele>482</ele>
        <time>2013-05-09T13:57:48.270Z</time>
      </trkpt>
      <trkpt lat="43.79987" lon="7.25853">
        <ele>482</ele>
        <time>2013-05-09T13:57:54.280Z</time>
      </trkpt>
      <trkpt lat="43.79972" lon="7.25895">
        <ele>495</ele>
        <time>2013-05-09T13:58:26.260Z</time>
      </trkpt>
      <trkpt lat="43.7997" lon="7.25932">
        <ele>501</ele>
        <time>2013-05-09T13:58:50.270Z</time>
      </trkpt>
      <trkpt lat="43.7997" lon="7.25958">
        <ele>502</ele>
        <time>2013-05-09T13:59:05.260Z</time>
      </trkpt>
      <trkpt lat="43.79958" lon="7.25972">
        <ele>504</ele>
        <time>2013-05-09T14:00:21.270Z</time>
      </trkpt>
      <trkpt lat="43.7996" lon="7.2602">
        <ele>493</ele>
        <time>2013-05-09T14:03:05.280Z</time>
      </trkpt>
      <trkpt lat="43.79977" lon="7.26063">
        <ele>490</ele>
        <time>2013-05-09T14:03:16.290Z</time>
      </trkpt>
      <trkpt lat="43.7998" lon="7.26118">
        <ele>494</ele>
        <time>2013-05-09T14:03:38.270Z</time>
      </trkpt>
      <trkpt lat="43.79975" lon="7.2616">
        <ele>496</ele>
        <time>2013-05-09T14:03:57.280Z</time>
      </trkpt>
      <trkpt lat="43.79963" lon="7.26198">
        <ele>496</ele>
        <time>2013-05-09T14:04:13.280Z</time>
      </trkpt>
      <trkpt lat="43.7995" lon="7.26255">
        <ele>496</ele>
        <time>2013-05-09T14:04:29.270Z</time>
      </trkpt>
      <trkpt lat="43.79922" lon="7.26263">
        <ele>499</ele>
        <time>2013-05-09T14:04:43.270Z</time>
      </trkpt>
      <trkpt lat="43.79905" lon="7.26312">
        <ele>500</ele>
        <time>2013-05-09T14:04:55.270Z</time>
      </trkpt>
      <trkpt lat="43.79848" lon="7.2638">
        <ele>502</ele>
        <time>2013-05-09T14:05:40.280Z</time>
      </trkpt>
      <trkpt lat="43.79808" lon="7.26418">
        <ele>500</ele>
        <time>2013-05-09T14:06:02.270Z</time>
      </trkpt>
      <trkpt lat="43.79788" lon="7.26413">
        <ele>497</ele>
        <time>2013-05-09T14:07:15.270Z</time>
      </trkpt>
      <trkpt lat="43.7981" lon="7.2642">
        <ele>504</ele>
        <time>2013-05-09T14:10:59.270Z</time>
      </trkpt>
      <trkpt lat="43.7984" lon="7.26392">
        <ele>506</ele>
        <time>2013-05-09T14:11:15.290Z</time>
      </trkpt>
      <trkpt lat="43.7989" lon="7.26332">
        <ele>503</ele>
        <time>2013-05-09T14:11:32.290Z</time>
      </trkpt>
      <trkpt lat="43.79905" lon="7.26285">
        <ele>503</ele>
        <time>2013-05-09T14:11:43.280Z</time>
      </trkpt>
      <trkpt lat="43.7993" lon="7.2628">
        <ele>504</ele>
        <time>2013-05-09T14:11:55.290Z</time>
      </trkpt>
      <trkpt lat="43.79953" lon="7.26228">
        <ele>513</ele>
        <time>2013-05-09T14:12:16.280Z</time>
      </trkpt>
      <trkpt lat="43.79935" lon="7.26203">
        <ele>513</ele>
        <time>2013-05-09T14:12:36.280Z</time>
      </trkpt>
      <trkpt lat="43.79917" lon="7.26188">
        <ele>509</ele>
        <time>2013-05-09T14:12:44.280Z</time>
      </trkpt>
      <trkpt lat="43.79877" lon="7.26237">
        <ele>500</ele>
        <time>2013-05-09T14:12:53.280Z</time>
      </trkpt>
      <trkpt lat="43.7985" lon="7.26197">
        <ele>490</ele>
        <time>2013-05-09T14:13:00.280Z</time>
      </trkpt>
      <trkpt lat="43.79807" lon="7.26215">
        <ele>473</ele>
        <time>2013-05-09T14:14:19.280Z</time>
      </trkpt>
      <trkpt lat="43.79798" lon="7.26163">
        <ele>471</ele>
        <time>2013-05-09T14:17:45.280Z</time>
      </trkpt>
      <trkpt lat="43.79782" lon="7.26125">
        <ele>472</ele>
        <time>2013-05-09T14:17:56.290Z</time>
      </trkpt>
      <trkpt lat="43.79757" lon="7.26065">
        <ele>472</ele>
        <time>2013-05-09T14:18:13.280Z</time>
      </trkpt>
      <trkpt lat="43.79712" lon="7.25948">
        <ele>473</ele>
        <time>2013-05-09T14:18:43.290Z</time>
      </trkpt>
      <trkpt lat="43.79703" lon="7.25875">
        <ele>476</ele>
        <time>2013-05-09T14:19:02.280Z</time>
      </trkpt>
      <trkpt lat="43.7971" lon="7.2583">
        <ele>479</ele>
        <time>2013-05-09T14:19:14.280Z</time>
      </trkpt>
      <trkpt lat="43.79745" lon="7.25675">
        <ele>478</ele>
        <time>2013-05-09T14:19:50.290Z</time>
      </trkpt>
      <trkpt lat="43.7973" lon="7.25625">
        <ele>478</ele>
        <time>2013-05-09T14:20:02.290Z</time>
      </trkpt>
      <trkpt lat="43.79707" lon="7.25608">
        <ele>484</ele>
        <time>2013-05-09T14:20:11.290Z</time>
      </trkpt>
      <trkpt lat="43.79677" lon="7.2562">
        <ele>486</ele>
        <time>2013-05-09T14:20:22.300Z</time>
      </trkpt>
      <trkpt lat="43.79617" lon="7.25673">
        <ele>490</ele>
        <time>2013-05-09T14:20:44.290Z</time>
      </trkpt>
      <trkpt lat="43.79582" lon="7.25672">
        <ele>491</ele>
        <time>2013-05-09T14:20:55.290Z</time>
      </trkpt>
      <trkpt lat="43.79557" lon="7.25628">
        <ele>491</ele>
        <time>2013-05-09T14:21:11.300Z</time>
      </trkpt>
      <trkpt lat="43.79545" lon="7.25583">
        <ele>493</ele>
        <time>2013-05-09T14:21:24.290Z</time>
      </trkpt>
      <trkpt lat="43.7953" lon="7.25547">
        <ele>497</ele>
        <time>2013-05-09T14:21:36.290Z</time>
      </trkpt>
      <trkpt lat="43.7951" lon="7.25533">
        <ele>500</ele>
        <time>2013-05-09T14:21:43.290Z</time>
      </trkpt>
      <trkpt lat="43.79443" lon="7.25567">
        <ele>506</ele>
        <time>2013-05-09T14:22:07.300Z</time>
      </trkpt>
      <trkpt lat="43.79413" lon="7.25568">
        <ele>508</ele>
        <time>2013-05-09T14:22:17.290Z</time>
      </trkpt>
      <trkpt lat="43.79383" lon="7.25547">
        <ele>509</ele>
        <time>2013-05-09T14:22:28.300Z</time>
      </trkpt>
      <trkpt lat="43.79345" lon="7.25517">
        <ele>507</ele>
        <time>2013-05-09T14:22:43.290Z</time>
      </trkpt>
      <trkpt lat="43.79322" lon="7.25487">
        <ele>506</ele>
        <time>2013-05-09T14:22:53.290Z</time>
      </trkpt>
      <trkpt lat="43.79312" lon="7.25447">
        <ele>506</ele>
        <time>2013-05-09T14:23:03.280Z</time>
      </trkpt>
      <trkpt lat="43.79305" lon="7.25352">
        <ele>504</ele>
        <time>2013-05-09T14:23:26.290Z</time>
      </trkpt>
      <trkpt lat="43.79292" lon="7.25323">
        <ele>504</ele>
        <time>2013-05-09T14:23:34.280Z</time>
      </trkpt>
      <trkpt lat="43.79265" lon="7.2531">
        <ele>505</ele>
        <time>2013-05-09T14:23:44.290Z</time>
      </trkpt>
      <trkpt lat="43.79128" lon="7.25377">
        <ele>513</ele>
        <time>2013-05-09T14:24:31.290Z</time>
      </trkpt>
      <trkpt lat="43.791" lon="7.25383">
        <ele>521</ele>
        <time>2013-05-09T14:24:40.290Z</time>
      </trkpt>
      <trkpt lat="43.78978" lon="7.25372">
        <ele>521</ele>
        <time>2013-05-09T14:25:21.300Z</time>
      </trkpt>
      <trkpt lat="43.7895" lon="7.25352">
        <ele>521</ele>
        <time>2013-05-09T14:25:32.300Z</time>
      </trkpt>
      <trkpt lat="43.78918" lon="7.25278">
        <ele>509</ele>
        <time>2013-05-09T14:25:53.290Z</time>
      </trkpt>
      <trkpt lat="43.78893" lon="7.25252">
        <ele>511</ele>
        <time>2013-05-09T14:26:03.290Z</time>
      </trkpt>
      <trkpt lat="43.78838" lon="7.25245">
        <ele>516</ele>
        <time>2013-05-09T14:26:21.290Z</time>
      </trkpt>
      <trkpt lat="43.78798" lon="7.2522">
        <ele>519</ele>
        <time>2013-05-09T14:26:35.290Z</time>
      </trkpt>
      <trkpt lat="43.78767" lon="7.25222">
        <ele>521</ele>
        <time>2013-05-09T14:26:47.290Z</time>
      </trkpt>
      <trkpt lat="43.78702" lon="7.25272">
        <ele>525</ele>
        <time>2013-05-09T14:27:10.290Z</time>
      </trkpt>
      <trkpt lat="43.78627" lon="7.25265">
        <ele>530</ele>
        <time>2013-05-09T14:27:35.300Z</time>
      </trkpt>
      <trkpt lat="43.78603" lon="7.25273">
        <ele>536</ele>
        <time>2013-05-09T14:27:42.300Z</time>
      </trkpt>
      <trkpt lat="43.78537" lon="7.25273">
        <ele>534</ele>
        <time>2013-05-09T14:28:06.310Z</time>
      </trkpt>
      <trkpt lat="43.78487" lon="7.25285">
        <ele>537</ele>
        <time>2013-05-09T14:28:21.290Z</time>
      </trkpt>
      <trkpt lat="43.78452" lon="7.25297">
        <ele>539</ele>
        <time>2013-05-09T14:28:32.290Z</time>
      </trkpt>
      <trkpt lat="43.78363" lon="7.25338">
        <ele>542</ele>
        <time>2013-05-09T14:29:02.290Z</time>
      </trkpt>
      <trkpt lat="43.783" lon="7.25385">
        <ele>545</ele>
        <time>2013-05-09T14:29:24.290Z</time>
      </trkpt>
      <trkpt lat="43.78258" lon="7.25412">
        <ele>543</ele>
        <time>2013-05-09T14:29:39.300Z</time>
      </trkpt>
      <trkpt lat="43.7823" lon="7.25407">
        <ele>545</ele>
        <time>2013-05-09T14:29:48.300Z</time>
      </trkpt>
      <trkpt lat="43.7821" lon="7.25355">
        <ele>545</ele>
        <time>2013-05-09T14:30:02.290Z</time>
      </trkpt>
      <trkpt lat="43.78202" lon="7.25302">
        <ele>540</ele>
        <time>2013-05-09T14:30:20.290Z</time>
      </trkpt>
      <trkpt lat="43.782" lon="7.25283">
        <ele>542</ele>
        <time>2013-05-09T14:30:31.290Z</time>
      </trkpt>
      <trkpt lat="43.78158" lon="7.25255">
        <ele>551</ele>
        <time>2013-05-09T14:31:07.290Z</time>
      </trkpt>
      <trkpt lat="43.78153" lon="7.25237">
        <ele>549</ele>
        <time>2013-05-09T14:33:16.300Z</time>
      </trkpt>
      <trkpt lat="43.78193" lon="7.25285">
        <ele>542</ele>
        <time>2013-05-09T14:35:43.300Z</time>
      </trkpt>
      <trkpt lat="43.78207" lon="7.25253">
        <ele>542</ele>
        <time>2013-05-09T14:35:54.310Z</time>
      </trkpt>
      <trkpt lat="43.78242" lon="7.25205">
        <ele>540</ele>
        <time>2013-05-09T14:36:08.290Z</time>
      </trkpt>
      <trkpt lat="43.78272" lon="7.2515">
        <ele>540</ele>
        <time>2013-05-09T14:36:29.310Z</time>
      </trkpt>
      <trkpt lat="43.78335" lon="7.25025">
        <ele>531</ele>
        <time>2013-05-09T14:37:32.310Z</time>
      </trkpt>
      <trkpt lat="43.78355" lon="7.24955">
        <ele>530</ele>
        <time>2013-05-09T14:37:44.310Z</time>
      </trkpt>
      <trkpt lat="43.78367" lon="7.24838">
        <ele>527</ele>
        <time>2013-05-09T14:38:05.310Z</time>
      </trkpt>
      <trkpt lat="43.78387" lon="7.2476">
        <ele>524</ele>
        <time>2013-05-09T14:38:21.310Z</time>
      </trkpt>
      <trkpt lat="43.78408" lon="7.24677">
        <ele>519</ele>
        <time>2013-05-09T14:38:33.310Z</time>
      </trkpt>
      <trkpt lat="43.78445" lon="7.24617">
        <ele>516</ele>
        <time>2013-05-09T14:38:45.310Z</time>
      </trkpt>
      <trkpt lat="43.7845" lon="7.24567">
        <ele>513</ele>
        <time>2013-05-09T14:38:51.300Z</time>
      </trkpt>
      <trkpt lat="43.7847" lon="7.24513">
        <ele>512</ele>
        <time>2013-05-09T14:38:58.300Z</time>
      </trkpt>
      <trkpt lat="43.78492" lon="7.24483">
        <ele>510</ele>
        <time>2013-05-09T14:39:05.320Z</time>
      </trkpt>
      <trkpt lat="43.78483" lon="7.24448">
        <ele>511</ele>
        <time>2013-05-09T14:39:42.300Z</time>
      </trkpt>
      <trkpt lat="43.78485" lon="7.24478">
        <ele>525</ele>
        <time>2013-05-09T14:43:07.310Z</time>
      </trkpt>
      <trkpt lat="43.78465" lon="7.2451">
        <ele>523</ele>
        <time>2013-05-09T14:43:21.310Z</time>
      </trkpt>
      <trkpt lat="43.78448" lon="7.24558">
        <ele>525</ele>
        <time>2013-05-09T14:43:39.310Z</time>
      </trkpt>
      <trkpt lat="43.78448" lon="7.24593">
        <ele>524</ele>
        <time>2013-05-09T14:43:50.320Z</time>
      </trkpt>
      <trkpt lat="43.78408" lon="7.24663">
        <ele>526</ele>
        <time>2013-05-09T14:44:18.300Z</time>
      </trkpt>
      <trkpt lat="43.78397" lon="7.247">
        <ele>528</ele>
        <time>2013-05-09T14:44:31.310Z</time>
      </trkpt>
      <trkpt lat="43.78387" lon="7.24748">
        <ele>529</ele>
        <time>2013-05-09T14:44:46.320Z</time>
      </trkpt>
      <trkpt lat="43.78368" lon="7.2483">
        <ele>529</ele>
        <time>2013-05-09T14:45:08.310Z</time>
      </trkpt>
      <trkpt lat="43.7836" lon="7.24945">
        <ele>533</ele>
        <time>2013-05-09T14:45:38.310Z</time>
      </trkpt>
      <trkpt lat="43.78337" lon="7.25023">
        <ele>534</ele>
        <time>2013-05-09T14:45:59.320Z</time>
      </trkpt>
      <trkpt lat="43.78205" lon="7.2526">
        <ele>540</ele>
        <time>2013-05-09T14:47:18.320Z</time>
      </trkpt>
      <trkpt lat="43.78168" lon="7.25253">
        <ele>544</ele>
        <time>2013-05-09T14:47:37.320Z</time>
      </trkpt>
      <trkpt lat="43.7816" lon="7.25228">
        <ele>548</ele>
        <time>2013-05-09T14:47:51.320Z</time>
      </trkpt>
      <trkpt lat="43.78218" lon="7.25108">
        <ele>537</ele>
        <time>2013-05-09T14:48:15.320Z</time>
      </trkpt>
      <trkpt lat="43.7822" lon="7.25075">
        <ele>542</ele>
        <time>2013-05-09T14:48:29.320Z</time>
      </trkpt>
      <trkpt lat="43.7822" lon="7.25047">
        <ele>547</ele>
        <time>2013-05-09T14:49:38.320Z</time>
      </trkpt>
      <trkpt lat="43.78215" lon="7.24998">
        <ele>553</ele>
        <time>2013-05-09T14:50:04.320Z</time>
      </trkpt>
      <trkpt lat="43.78207" lon="7.24973">
        <ele>556</ele>
        <time>2013-05-09T14:50:22.320Z</time>
      </trkpt>
      <trkpt lat="43.782" lon="7.24942">
        <ele>561</ele>
        <time>2013-05-09T14:50:49.320Z</time>
      </trkpt>
      <trkpt lat="43.78187" lon="7.24928">
        <ele>564</ele>
        <time>2013-05-09T14:51:28.320Z</time>
      </trkpt>
      <trkpt lat="43.78167" lon="7.24905">
        <ele>567</ele>
        <time>2013-05-09T14:52:03.320Z</time>
      </trkpt>
      <trkpt lat="43.7814" lon="7.2489">
        <ele>571</ele>
        <time>2013-05-09T14:52:25.320Z</time>
      </trkpt>
      <trkpt lat="43.78103" lon="7.2488">
        <ele>577</ele>
        <time>2013-05-09T14:53:03.330Z</time>
      </trkpt>
      <trkpt lat="43.78085" lon="7.24883">
        <ele>577</ele>
        <time>2013-05-09T14:55:18.320Z</time>
      </trkpt>
      <trkpt lat="43.78062" lon="7.24882">
        <ele>584</ele>
        <time>2013-05-09T14:56:02.340Z</time>
      </trkpt>
      <trkpt lat="43.78027" lon="7.2488">
        <ele>594</ele>
        <time>2013-05-09T14:57:04.330Z</time>
      </trkpt>
      <trkpt lat="43.7799" lon="7.24873">
        <ele>599</ele>
        <time>2013-05-09T14:57:58.330Z</time>
      </trkpt>
      <trkpt lat="43.77977" lon="7.24815">
        <ele>606</ele>
        <time>2013-05-09T14:58:38.330Z</time>
      </trkpt>
      <trkpt lat="43.77972" lon="7.24797">
        <ele>610</ele>
        <time>2013-05-09T14:59:05.330Z</time>
      </trkpt>
      <trkpt lat="43.77958" lon="7.24808">
        <ele>618</ele>
        <time>2013-05-09T15:00:02.330Z</time>
      </trkpt>
      <trkpt lat="43.77947" lon="7.24817">
        <ele>622</ele>
        <time>2013-05-09T15:00:25.330Z</time>
      </trkpt>
      <trkpt lat="43.77935" lon="7.24807">
        <ele>628</ele>
        <time>2013-05-09T15:00:57.340Z</time>
      </trkpt>
      <trkpt lat="43.77913" lon="7.24798">
        <ele>631</ele>
        <time>2013-05-09T15:02:42.340Z</time>
      </trkpt>
      <trkpt lat="43.77883" lon="7.24825">
        <ele>634</ele>
        <time>2013-05-09T15:04:58.340Z</time>
      </trkpt>
      <trkpt lat="43.77862" lon="7.24842">
        <ele>640</ele>
        <time>2013-05-09T15:05:52.350Z</time>
      </trkpt>
      <trkpt lat="43.77848" lon="7.24858">
        <ele>643</ele>
        <time>2013-05-09T15:06:23.350Z</time>
      </trkpt>
      <trkpt lat="43.77822" lon="7.24872">
        <ele>649</ele>
        <time>2013-05-09T15:07:24.350Z</time>
      </trkpt>
      <trkpt lat="43.778" lon="7.24873">
        <ele>655</ele>
        <time>2013-05-09T15:08:06.350Z</time>
      </trkpt>
      <trkpt lat="43.7779" lon="7.24875">
        <ele>654</ele>
        <time>2013-05-09T15:09:56.350Z</time>
      </trkpt>
      <trkpt lat="43.77768" lon="7.24898">
        <ele>659</ele>
        <time>2013-05-09T15:21:15.360Z</time>
      </trkpt>
      <trkpt lat="43.77695" lon="7.24927">
        <ele>658</ele>
        <time>2013-05-09T15:21:44.350Z</time>
      </trkpt>
      <trkpt lat="43.77667" lon="7.24912">
        <ele>661</ele>
        <time>2013-05-09T15:21:56.350Z</time>
      </trkpt>
      <trkpt lat="43.7757" lon="7.24925">
        <ele>665</ele>
        <time>2013-05-09T15:22:40.360Z</time>
      </trkpt>
      <trkpt lat="43.77518" lon="7.24947">
        <ele>661</ele>
        <time>2013-05-09T15:23:07.360Z</time>
      </trkpt>
      <trkpt lat="43.77467" lon="7.24962">
        <ele>659</ele>
        <time>2013-05-09T15:23:35.360Z</time>
      </trkpt>
      <trkpt lat="43.77438" lon="7.24957">
        <ele>662</ele>
        <time>2013-05-09T15:23:49.360Z</time>
      </trkpt>
      <trkpt lat="43.77415" lon="7.24965">
        <ele>664</ele>
        <time>2013-05-09T15:24:04.360Z</time>
      </trkpt>
      <trkpt lat="43.77395" lon="7.24963">
        <ele>668</ele>
        <time>2013-05-09T15:24:51.360Z</time>
      </trkpt>
      <trkpt lat="43.7734" lon="7.24963">
        <ele>680</ele>
        <time>2013-05-09T15:26:47.360Z</time>
      </trkpt>
      <trkpt lat="43.77325" lon="7.24965">
        <ele>684</ele>
        <time>2013-05-09T15:27:06.360Z</time>
      </trkpt>
      <trkpt lat="43.77272" lon="7.24975">
        <ele>684</ele>
        <time>2013-05-09T15:28:04.360Z</time>
      </trkpt>
      <trkpt lat="43.77218" lon="7.24995">
        <ele>682</ele>
        <time>2013-05-09T15:28:30.360Z</time>
      </trkpt>
      <trkpt lat="43.77133" lon="7.25003">
        <ele>679</ele>
        <time>2013-05-09T15:28:56.360Z</time>
      </trkpt>
      <trkpt lat="43.77102" lon="7.25005">
        <ele>678</ele>
        <time>2013-05-09T15:29:06.360Z</time>
      </trkpt>
      <trkpt lat="43.77043" lon="7.24977">
        <ele>685</ele>
        <time>2013-05-09T15:29:26.360Z</time>
      </trkpt>
      <trkpt lat="43.77013" lon="7.24988">
        <ele>687</ele>
        <time>2013-05-09T15:29:43.360Z</time>
      </trkpt>
      <trkpt lat="43.7689" lon="7.25037">
        <ele>678</ele>
        <time>2013-05-09T15:30:56.360Z</time>
      </trkpt>
      <trkpt lat="43.76863" lon="7.25038">
        <ele>675</ele>
        <time>2013-05-09T15:31:05.360Z</time>
      </trkpt>
      <trkpt lat="43.76842" lon="7.25043">
        <ele>673</ele>
        <time>2013-05-09T15:31:17.360Z</time>
      </trkpt>
      <trkpt lat="43.76825" lon="7.2505">
        <ele>671</ele>
        <time>2013-05-09T15:32:11.370Z</time>
      </trkpt>
      <trkpt lat="43.76797" lon="7.25032">
        <ele>670</ele>
        <time>2013-05-09T15:32:22.360Z</time>
      </trkpt>
      <trkpt lat="43.76735" lon="7.25057">
        <ele>663</ele>
        <time>2013-05-09T15:32:43.380Z</time>
      </trkpt>
      <trkpt lat="43.76702" lon="7.25052">
        <ele>659</ele>
        <time>2013-05-09T15:32:52.360Z</time>
      </trkpt>
      <trkpt lat="43.7667" lon="7.25085">
        <ele>653</ele>
        <time>2013-05-09T15:33:03.370Z</time>
      </trkpt>
      <trkpt lat="43.76577" lon="7.25108">
        <ele>643</ele>
        <time>2013-05-09T15:33:26.370Z</time>
      </trkpt>
      <trkpt lat="43.76538" lon="7.2513">
        <ele>639</ele>
        <time>2013-05-09T15:33:38.370Z</time>
      </trkpt>
      <trkpt lat="43.76488" lon="7.25112">
        <ele>633</ele>
        <time>2013-05-09T15:35:15.380Z</time>
      </trkpt>
      <trkpt lat="43.76443" lon="7.2512">
        <ele>629</ele>
        <time>2013-05-09T15:35:27.360Z</time>
      </trkpt>
      <trkpt lat="43.764" lon="7.25142">
        <ele>623</ele>
        <time>2013-05-09T15:35:39.380Z</time>
      </trkpt>
      <trkpt lat="43.76362" lon="7.25178">
        <ele>618</ele>
        <time>2013-05-09T15:38:53.380Z</time>
      </trkpt>
      <trkpt lat="43.7634" lon="7.25175">
        <ele>608</ele>
        <time>2013-05-09T15:41:50.380Z</time>
      </trkpt>
      <trkpt lat="43.76325" lon="7.2516">
        <ele>602</ele>
        <time>2013-05-09T15:42:02.380Z</time>
      </trkpt>
      <trkpt lat="43.76317" lon="7.25135">
        <ele>594</ele>
        <time>2013-05-09T15:42:13.400Z</time>
      </trkpt>
      <trkpt lat="43.76312" lon="7.25113">
        <ele>588</ele>
        <time>2013-05-09T15:42:22.400Z</time>
      </trkpt>
      <trkpt lat="43.7629" lon="7.25115">
        <ele>583</ele>
        <time>2013-05-09T15:43:32.370Z</time>
      </trkpt>
      <trkpt lat="43.76277" lon="7.25107">
        <ele>576</ele>
        <time>2013-05-09T15:43:40.380Z</time>
      </trkpt>
      <trkpt lat="43.76265" lon="7.25087">
        <ele>567</ele>
        <time>2013-05-09T15:47:30.380Z</time>
      </trkpt>
      <trkpt lat="43.76265" lon="7.25058">
        <ele>559</ele>
        <time>2013-05-09T15:47:42.390Z</time>
      </trkpt>
      <trkpt lat="43.76248" lon="7.25047">
        <ele>550</ele>
        <time>2013-05-09T15:49:48.410Z</time>
      </trkpt>
      <trkpt lat="43.76238" lon="7.25027">
        <ele>540</ele>
        <time>2013-05-09T15:49:59.400Z</time>
      </trkpt>
      <trkpt lat="43.76223" lon="7.25015">
        <ele>532</ele>
        <time>2013-05-09T15:50:07.410Z</time>
      </trkpt>
      <trkpt lat="43.76205" lon="7.24998">
        <ele>524</ele>
        <time>2013-05-09T15:50:55.400Z</time>
      </trkpt>
      <trkpt lat="43.76187" lon="7.24993">
        <ele>520</ele>
        <time>2013-05-09T15:51:05.410Z</time>
      </trkpt>
      <trkpt lat="43.76182" lon="7.24968">
        <ele>510</ele>
        <time>2013-05-09T15:52:43.410Z</time>
      </trkpt>
      <trkpt lat="43.7618" lon="7.24942">
        <ele>501</ele>
        <time>2013-05-09T15:52:56.420Z</time>
      </trkpt>
      <trkpt lat="43.76187" lon="7.24917">
        <ele>495</ele>
        <time>2013-05-09T15:53:04.410Z</time>
      </trkpt>
      <trkpt lat="43.7615" lon="7.24898">
        <ele>479</ele>
        <time>2013-05-09T15:55:07.420Z</time>
      </trkpt>
      <trkpt lat="43.76128" lon="7.24875">
        <ele>469</ele>
        <time>2013-05-09T15:55:18.410Z</time>
      </trkpt>
      <trkpt lat="43.76068" lon="7.24895">
        <ele>461</ele>
        <time>2013-05-09T15:55:33.420Z</time>
      </trkpt>
      <trkpt lat="43.76048" lon="7.24902">
        <ele>463</ele>
        <time>2013-05-09T15:57:41.410Z</time>
      </trkpt>
      <trkpt lat="43.76022" lon="7.24895">
        <ele>460</ele>
        <time>2013-05-09T15:57:54.410Z</time>
      </trkpt>
      <trkpt lat="43.76007" lon="7.24863">
        <ele>454</ele>
        <time>2013-05-09T15:58:07.420Z</time>
      </trkpt>
      <trkpt lat="43.75988" lon="7.24813">
        <ele>449</ele>
        <time>2013-05-09T15:58:18.410Z</time>
      </trkpt>
      <trkpt lat="43.75992" lon="7.24782">
        <ele>439</ele>
        <time>2013-05-09T15:58:28.410Z</time>
      </trkpt>
      <trkpt lat="43.7597" lon="7.24758">
        <ele>435</ele>
        <time>2013-05-09T15:58:49.410Z</time>
      </trkpt>
      <trkpt lat="43.75947" lon="7.2478">
        <ele>433</ele>
        <time>2013-05-09T15:58:58.410Z</time>
      </trkpt>
      <trkpt lat="43.75927" lon="7.24847">
        <ele>431</ele>
        <time>2013-05-09T15:59:10.410Z</time>
      </trkpt>
      <trkpt lat="43.75912" lon="7.24918">
        <ele>430</ele>
        <time>2013-05-09T15:59:25.400Z</time>
      </trkpt>
      <trkpt lat="43.7588" lon="7.24957">
        <ele>434</ele>
        <time>2013-05-09T15:59:41.420Z</time>
      </trkpt>
      <trkpt lat="43.75862" lon="7.24965">
        <ele>438</ele>
        <time>2013-05-09T15:59:49.410Z</time>
      </trkpt>
      <trkpt lat="43.75853" lon="7.24983">
        <ele>444</ele>
        <time>2013-05-09T16:00:08.400Z</time>
      </trkpt>
      <trkpt lat="43.758" lon="7.25002">
        <ele>447</ele>
        <time>2013-05-09T16:00:36.430Z</time>
      </trkpt>
      <trkpt lat="43.75772" lon="7.25032">
        <ele>446</ele>
        <time>2013-05-09T16:00:49.420Z</time>
      </trkpt>
      <trkpt lat="43.7572" lon="7.25075">
        <ele>447</ele>
        <time>2013-05-09T16:01:09.410Z</time>
      </trkpt>
      <trkpt lat="43.75682" lon="7.25108">
        <ele>451</ele>
        <time>2013-05-09T16:01:29.420Z</time>
      </trkpt>
      <trkpt lat="43.7566" lon="7.2513">
        <ele>452</ele>
        <time>2013-05-09T16:01:41.410Z</time>
      </trkpt>
      <trkpt lat="43.75638" lon="7.25142">
        <ele>444</ele>
        <time>2013-05-09T16:03:07.420Z</time>
      </trkpt>
      <trkpt lat="43.75615" lon="7.25152">
        <ele>434</ele>
        <time>2013-05-09T16:05:16.410Z</time>
      </trkpt>
      <trkpt lat="43.75598" lon="7.2517">
        <ele>433</ele>
        <time>2013-05-09T16:05:24.410Z</time>
      </trkpt>
      <trkpt lat="43.7556" lon="7.25183">
        <ele>431</ele>
        <time>2013-05-09T16:05:39.420Z</time>
      </trkpt>
      <trkpt lat="43.75528" lon="7.25208">
        <ele>431</ele>
        <time>2013-05-09T16:07:34.420Z</time>
      </trkpt>
      <trkpt lat="43.75498" lon="7.2525">
        <ele>434</ele>
        <time>2013-05-09T16:07:57.420Z</time>
      </trkpt>
      <trkpt lat="43.75477" lon="7.25277">
        <ele>437</ele>
        <time>2013-05-09T16:08:22.420Z</time>
      </trkpt>
      <trkpt lat="43.75465" lon="7.25293">
        <ele>437</ele>
        <time>2013-05-09T16:08:50.420Z</time>
      </trkpt>
      <trkpt lat="43.75477" lon="7.25278">
        <ele>434</ele>
        <time>2013-05-09T16:10:09.430Z</time>
      </trkpt>
      <trkpt lat="43.75392" lon="7.25408">
        <ele>447</ele>
        <time>2013-05-09T16:17:42.430Z</time>
      </trkpt>
      <trkpt lat="43.75365" lon="7.25457">
        <ele>450</ele>
        <time>2013-05-09T16:18:02.430Z</time>
      </trkpt>
      <trkpt lat="43.75352" lon="7.2549">
        <ele>455</ele>
        <time>2013-05-09T16:19:08.440Z</time>
      </trkpt>
      <trkpt lat="43.7534" lon="7.25508">
        <ele>461</ele>
        <time>2013-05-09T16:19:38.430Z</time>
      </trkpt>
      <trkpt lat="43.75333" lon="7.25527">
        <ele>464</ele>
        <time>2013-05-09T16:20:03.430Z</time>
      </trkpt>
      <trkpt lat="43.75323" lon="7.25573">
        <ele>471</ele>
        <time>2013-05-09T16:20:56.440Z</time>
      </trkpt>
      <trkpt lat="43.75315" lon="7.25608">
        <ele>474</ele>
        <time>2013-05-09T16:22:06.440Z</time>
      </trkpt>
      <trkpt lat="43.75307" lon="7.25645">
        <ele>480</ele>
        <time>2013-05-09T16:22:57.430Z</time>
      </trkpt>
      <trkpt lat="43.75303" lon="7.25665">
        <ele>483</ele>
        <time>2013-05-09T16:23:23.440Z</time>
      </trkpt>
      <trkpt lat="43.75297" lon="7.25688">
        <ele>486</ele>
        <time>2013-05-09T16:23:56.440Z</time>
      </trkpt>
      <trkpt lat="43.75283" lon="7.25747">
        <ele>492</ele>
        <time>2013-05-09T16:25:17.440Z</time>
      </trkpt>
      <trkpt lat="43.75277" lon="7.25787">
        <ele>494</ele>
        <time>2013-05-09T16:25:37.440Z</time>
      </trkpt>
      <trkpt lat="43.75265" lon="7.25837">
        <ele>501</ele>
        <time>2013-05-09T16:26:05.440Z</time>
      </trkpt>
      <trkpt lat="43.75243" lon="7.25935">
        <ele>503</ele>
        <time>2013-05-09T16:30:05.440Z</time>
      </trkpt>
      <trkpt lat="43.75232" lon="7.25963">
        <ele>498</ele>
        <time>2013-05-09T16:30:14.440Z</time>
      </trkpt>
      <trkpt lat="43.75157" lon="7.26002">
        <ele>477</ele>
        <time>2013-05-09T16:30:39.450Z</time>
      </trkpt>
      <trkpt lat="43.75133" lon="7.26008">
        <ele>471</ele>
        <time>2013-05-09T16:31:25.440Z</time>
      </trkpt>
      <trkpt lat="43.75065" lon="7.26057">
        <ele>449</ele>
        <time>2013-05-09T16:31:56.440Z</time>
      </trkpt>
      <trkpt lat="43.75095" lon="7.26087">
        <ele>438</ele>
        <time>2013-05-09T16:32:11.450Z</time>
      </trkpt>
      <trkpt lat="43.75133" lon="7.26118">
        <ele>426</ele>
        <time>2013-05-09T16:32:23.440Z</time>
      </trkpt>
      <trkpt lat="43.75155" lon="7.26145">
        <ele>419</ele>
        <time>2013-05-09T16:32:31.450Z</time>
      </trkpt>
      <trkpt lat="43.75133" lon="7.2612">
        <ele>428</ele>
        <time>2013-05-09T16:36:02.450Z</time>
      </trkpt>
      <trkpt lat="43.75108" lon="7.26098">
        <ele>435</ele>
        <time>2013-05-09T16:36:56.460Z</time>
      </trkpt>
      <trkpt lat="43.75092" lon="7.26083">
        <ele>442</ele>
        <time>2013-05-09T16:37:46.460Z</time>
      </trkpt>
      <trkpt lat="43.7507" lon="7.26068">
        <ele>448</ele>
        <time>2013-05-09T16:38:49.460Z</time>
      </trkpt>
      <trkpt lat="43.75103" lon="7.26033">
        <ele>463</ele>
        <time>2013-05-09T16:42:31.460Z</time>
      </trkpt>
      <trkpt lat="43.75118" lon="7.26022">
        <ele>468</ele>
        <time>2013-05-09T16:44:26.460Z</time>
      </trkpt>
      <trkpt lat="43.75152" lon="7.26007">
        <ele>474</ele>
        <time>2013-05-09T16:45:42.470Z</time>
      </trkpt>
      <trkpt lat="43.75183" lon="7.25995">
        <ele>482</ele>
        <time>2013-05-09T16:46:48.460Z</time>
      </trkpt>
      <trkpt lat="43.75212" lon="7.25982">
        <ele>489</ele>
        <time>2013-05-09T16:47:56.450Z</time>
      </trkpt>
      <trkpt lat="43.75228" lon="7.25973">
        <ele>494</ele>
        <time>2013-05-09T16:48:28.470Z</time>
      </trkpt>
      <trkpt lat="43.75238" lon="7.2595">
        <ele>500</ele>
        <time>2013-05-09T16:49:06.450Z</time>
      </trkpt>
      <trkpt lat="43.75247" lon="7.25933">
        <ele>502</ele>
        <time>2013-05-09T16:49:26.460Z</time>
      </trkpt>
      <trkpt lat="43.75267" lon="7.2585">
        <ele>497</ele>
        <time>2013-05-09T16:50:16.470Z</time>
      </trkpt>
      <trkpt lat="43.75238" lon="7.25852">
        <ele>495</ele>
        <time>2013-05-09T16:51:15.460Z</time>
      </trkpt>
      <trkpt lat="43.75172" lon="7.25873">
        <ele>491</ele>
        <time>2013-05-09T16:51:31.470Z</time>
      </trkpt>
      <trkpt lat="43.75095" lon="7.25875">
        <ele>485</ele>
        <time>2013-05-09T16:51:48.460Z</time>
      </trkpt>
      <trkpt lat="43.75063" lon="7.25858">
        <ele>482</ele>
        <time>2013-05-09T16:51:55.460Z</time>
      </trkpt>
      <trkpt lat="43.75017" lon="7.25853">
        <ele>479</ele>
        <time>2013-05-09T16:52:08.470Z</time>
      </trkpt>
      <trkpt lat="43.74978" lon="7.25853">
        <ele>478</ele>
        <time>2013-05-09T16:52:20.470Z</time>
      </trkpt>
      <trkpt lat="43.74952" lon="7.25838">
        <ele>476</ele>
        <time>2013-05-09T16:52:29.470Z</time>
      </trkpt>
      <trkpt lat="43.74793" lon="7.25838">
        <ele>474</ele>
        <time>2013-05-09T16:53:19.460Z</time>
      </trkpt>
      <trkpt lat="43.74767" lon="7.25845">
        <ele>472</ele>
        <time>2013-05-09T16:53:27.460Z</time>
      </trkpt>
      <trkpt lat="43.74733" lon="7.25868">
        <ele>470</ele>
        <time>2013-05-09T16:53:41.460Z</time>
      </trkpt>
      <trkpt lat="43.74715" lon="7.25877">
        <ele>464</ele>
        <time>2013-05-09T16:53:50.460Z</time>
      </trkpt>
      <trkpt lat="43.74698" lon="7.25885">
        <ele>461</ele>
        <time>2013-05-09T16:54:55.460Z</time>
      </trkpt>
      <trkpt lat="43.74683" lon="7.25888">
        <ele>456</ele>
        <time>2013-05-09T16:55:18.470Z</time>
      </trkpt>
      <trkpt lat="43.74658" lon="7.25848">
        <ele>452</ele>
        <time>2013-05-09T16:55:30.470Z</time>
      </trkpt>
      <trkpt lat="43.74605" lon="7.25872">
        <ele>449</ele>
        <time>2013-05-09T16:55:56.460Z</time>
      </trkpt>
      <trkpt lat="43.74582" lon="7.25868">
        <ele>443</ele>
        <time>2013-05-09T16:56:04.470Z</time>
      </trkpt>
      <trkpt lat="43.74568" lon="7.25835">
        <ele>434</ele>
        <time>2013-05-09T16:56:35.470Z</time>
      </trkpt>
      <trkpt lat="43.74567" lon="7.25817">
        <ele>427</ele>
        <time>2013-05-09T17:02:42.470Z</time>
      </trkpt>
      <trkpt lat="43.74563" lon="7.25798">
        <ele>423</ele>
        <time>2013-05-09T17:03:03.470Z</time>
      </trkpt>
      <trkpt lat="43.74555" lon="7.25767">
        <ele>414</ele>
        <time>2013-05-09T17:04:20.470Z</time>
      </trkpt>
      <trkpt lat="43.74535" lon="7.25718">
        <ele>404</ele>
        <time>2013-05-09T17:04:36.480Z</time>
      </trkpt>
      <trkpt lat="43.7451" lon="7.25707">
        <ele>399</ele>
        <time>2013-05-09T17:05:23.490Z</time>
      </trkpt>
      <trkpt lat="43.74473" lon="7.25685">
        <ele>395</ele>
        <time>2013-05-09T17:05:38.500Z</time>
      </trkpt>
      <trkpt lat="43.74433" lon="7.25675">
        <ele>391</ele>
        <time>2013-05-09T17:05:51.490Z</time>
      </trkpt>
      <trkpt lat="43.7441" lon="7.25652">
        <ele>390</ele>
        <time>2013-05-09T17:06:00.480Z</time>
      </trkpt>
      <trkpt lat="43.74388" lon="7.25648">
        <ele>388</ele>
        <time>2013-05-09T17:06:47.480Z</time>
      </trkpt>
      <trkpt lat="43.74343" lon="7.25638">
        <ele>386</ele>
        <time>2013-05-09T17:07:01.490Z</time>
      </trkpt>
      <trkpt lat="43.74328" lon="7.2562">
        <ele>385</ele>
        <time>2013-05-09T17:07:08.490Z</time>
      </trkpt>
      <trkpt lat="43.74298" lon="7.25615">
        <ele>385</ele>
        <time>2013-05-09T17:07:20.490Z</time>
      </trkpt>
      <trkpt lat="43.74267" lon="7.25633">
        <ele>387</ele>
        <time>2013-05-09T17:07:35.480Z</time>
      </trkpt>
      <trkpt lat="43.74228" lon="7.25665">
        <ele>385</ele>
        <time>2013-05-09T17:07:45.500Z</time>
      </trkpt>
      <trkpt lat="43.742" lon="7.25732">
        <ele>373</ele>
        <time>2013-05-09T17:08:03.500Z</time>
      </trkpt>
      <trkpt lat="43.74202" lon="7.25768">
        <ele>370</ele>
        <time>2013-05-09T17:08:16.490Z</time>
      </trkpt>
      <trkpt lat="43.74255" lon="7.2584">
        <ele>369</ele>
        <time>2013-05-09T17:08:34.500Z</time>
      </trkpt>
      <trkpt lat="43.74288" lon="7.2586">
        <ele>365</ele>
        <time>2013-05-09T17:08:41.500Z</time>
      </trkpt>
      <trkpt lat="43.743" lon="7.25877">
        <ele>362</ele>
        <time>2013-05-09T17:08:47.490Z</time>
      </trkpt>
      <trkpt lat="43.74293" lon="7.25928">
        <ele>356</ele>
        <time>2013-05-09T17:08:56.490Z</time>
      </trkpt>
      <trkpt lat="43.74383" lon="7.26247">
        <ele>337</ele>
        <time>2013-05-09T17:09:40.490Z</time>
      </trkpt>
      <trkpt lat="43.74358" lon="7.26318">
        <ele>329</ele>
        <time>2013-05-09T17:09:51.500Z</time>
      </trkpt>
      <trkpt lat="43.74348" lon="7.26342">
        <ele>329</ele>
        <time>2013-05-09T17:10:06.490Z</time>
      </trkpt>
      <trkpt lat="43.74375" lon="7.2646">
        <ele>333</ele>
        <time>2013-05-09T17:12:54.490Z</time>
      </trkpt>
      <trkpt lat="43.74382" lon="7.26507">
        <ele>332</ele>
        <time>2013-05-09T17:13:07.500Z</time>
      </trkpt>
      <trkpt lat="43.74417" lon="7.26672">
        <ele>333</ele>
        <time>2013-05-09T17:13:43.500Z</time>
      </trkpt>
      <trkpt lat="43.74435" lon="7.26727">
        <ele>332</ele>
        <time>2013-05-09T17:13:55.490Z</time>
      </trkpt>
      <trkpt lat="43.74435" lon="7.26782">
        <ele>331</ele>
        <time>2013-05-09T17:14:05.500Z</time>
      </trkpt>
      <trkpt lat="43.74433" lon="7.2681">
        <ele>325</ele>
        <time>2013-05-09T17:15:34.490Z</time>
      </trkpt>
      <trkpt lat="43.74415" lon="7.26883">
        <ele>325</ele>
        <time>2013-05-09T17:20:52.490Z</time>
      </trkpt>
      <trkpt lat="43.74408" lon="7.26935">
        <ele>324</ele>
        <time>2013-05-09T17:21:02.490Z</time>
      </trkpt>
      <trkpt lat="43.74398" lon="7.27018">
        <ele>323</ele>
        <time>2013-05-09T17:21:20.510Z</time>
      </trkpt>
      <trkpt lat="43.74375" lon="7.27118">
        <ele>315</ele>
        <time>2013-05-09T17:23:23.500Z</time>
      </trkpt>
      <trkpt lat="43.74387" lon="7.27135">
        <ele>314</ele>
        <time>2013-05-09T17:24:56.500Z</time>
      </trkpt>
      <trkpt lat="43.74445" lon="7.27207">
        <ele>300</ele>
        <time>2013-05-09T17:26:26.510Z</time>
      </trkpt>
      <trkpt lat="43.74462" lon="7.27207">
        <ele>297</ele>
        <time>2013-05-09T17:26:34.510Z</time>
      </trkpt>
      <trkpt lat="43.7451" lon="7.27298">
        <ele>278</ele>
        <time>2013-05-09T17:26:58.500Z</time>
      </trkpt>
      <trkpt lat="43.74522" lon="7.27345">
        <ele>279</ele>
        <time>2013-05-09T17:27:06.510Z</time>
      </trkpt>
      <trkpt lat="43.74507" lon="7.27383">
        <ele>280</ele>
        <time>2013-05-09T17:27:20.510Z</time>
      </trkpt>
      <trkpt lat="43.74488" lon="7.27417">
        <ele>279</ele>
        <time>2013-05-09T17:27:32.510Z</time>
      </trkpt>
      <trkpt lat="43.74375" lon="7.27508">
        <ele>276</ele>
        <time>2013-05-09T17:28:11.510Z</time>
      </trkpt>
      <trkpt lat="43.74332" lon="7.27533">
        <ele>271</ele>
        <time>2013-05-09T17:28:25.510Z</time>
      </trkpt>
      <trkpt lat="43.74298" lon="7.27575">
        <ele>261</ele>
        <time>2013-05-09T17:28:33.510Z</time>
      </trkpt>
      <trkpt lat="43.74295" lon="7.2762">
        <ele>255</ele>
        <time>2013-05-09T17:28:39.510Z</time>
      </trkpt>
      <trkpt lat="43.7427" lon="7.2765">
        <ele>247</ele>
        <time>2013-05-09T17:28:45.510Z</time>
      </trkpt>
      <trkpt lat="43.7426" lon="7.27675">
        <ele>241</ele>
        <time>2013-05-09T17:28:50.500Z</time>
      </trkpt>
      <trkpt lat="43.74248" lon="7.27685">
        <ele>234</ele>
        <time>2013-05-09T17:30:01.510Z</time>
      </trkpt>
      <trkpt lat="43.74247" lon="7.27728">
        <ele>227</ele>
        <time>2013-05-09T17:30:14.510Z</time>
      </trkpt>
      <trkpt lat="43.74247" lon="7.27748">
        <ele>221</ele>
        <time>2013-05-09T17:31:23.510Z</time>
      </trkpt>
      <trkpt lat="43.74238" lon="7.27772">
        <ele>215</ele>
        <time>2013-05-09T17:31:53.520Z</time>
      </trkpt>
      <trkpt lat="43.74243" lon="7.27807">
        <ele>211</ele>
        <time>2013-05-09T17:32:02.520Z</time>
      </trkpt>
      <trkpt lat="43.74245" lon="7.27935">
        <ele>194</ele>
        <time>2013-05-09T17:34:06.520Z</time>
      </trkpt>
      <trkpt lat="43.74243" lon="7.27978">
        <ele>188</ele>
        <time>2013-05-09T17:34:19.510Z</time>
      </trkpt>
      <trkpt lat="43.74228" lon="7.27935">
        <ele>187</ele>
        <time>2013-05-09T17:35:05.520Z</time>
      </trkpt>
      <trkpt lat="43.74205" lon="7.2786">
        <ele>184</ele>
        <time>2013-05-09T17:35:23.520Z</time>
      </trkpt>
      <trkpt lat="43.742" lon="7.27907">
        <ele>174</ele>
        <time>2013-05-09T17:35:36.510Z</time>
      </trkpt>
      <trkpt lat="43.74205" lon="7.27933">
        <ele>172</ele>
        <time>2013-05-09T17:35:46.510Z</time>
      </trkpt>
      <trkpt lat="43.74193" lon="7.27973">
        <ele>167</ele>
        <time>2013-05-09T17:36:40.520Z</time>
      </trkpt>
      <trkpt lat="43.742" lon="7.28023">
        <ele>159</ele>
        <time>2013-05-09T17:36:51.530Z</time>
      </trkpt>
      <trkpt lat="43.74225" lon="7.28065">
        <ele>153</ele>
        <time>2013-05-09T17:36:59.520Z</time>
      </trkpt>
      <trkpt lat="43.74237" lon="7.28085">
        <ele>149</ele>
        <time>2013-05-09T17:37:06.520Z</time>
      </trkpt>
      <trkpt lat="43.74212" lon="7.28093">
        <ele>145</ele>
        <time>2013-05-09T17:37:12.510Z</time>
      </trkpt>
      <trkpt lat="43.74212" lon="7.28168">
        <ele>136</ele>
        <time>2013-05-09T17:37:20.520Z</time>
      </trkpt>
      <trkpt lat="43.7416" lon="7.28263">
        <ele>120</ele>
        <time>2013-05-09T17:37:32.520Z</time>
      </trkpt>
      <trkpt lat="43.74115" lon="7.28283">
        <ele>116</ele>
        <time>2013-05-09T17:37:38.530Z</time>
      </trkpt>
      <trkpt lat="43.74063" lon="7.28322">
        <ele>112</ele>
        <time>2013-05-09T17:37:44.520Z</time>
      </trkpt>
      <trkpt lat="43.74023" lon="7.28432">
        <ele>98</ele>
        <time>2013-05-09T17:37:57.520Z</time>
      </trkpt>
      <trkpt lat="43.74015" lon="7.28492">
        <ele>94</ele>
        <time>2013-05-09T17:38:08.510Z</time>
      </trkpt>
      <trkpt lat="43.74017" lon="7.28567">
        <ele>86</ele>
        <time>2013-05-09T17:38:18.530Z</time>
      </trkpt>
      <trkpt lat="43.74025" lon="7.28647">
        <ele>80</ele>
        <time>2013-05-09T17:38:29.530Z</time>
      </trkpt>
      <trkpt lat="43.73985" lon="7.28745">
        <ele>75</ele>
        <time>2013-05-09T17:38:47.520Z</time>
      </trkpt>
      <trkpt lat="43.73992" lon="7.28772">
        <ele>79</ele>
        <time>2013-05-09T17:39:14.530Z</time>
      </trkpt>
      <trkpt lat="43.7407" lon="7.28783">
        <ele>75</ele>
        <time>2013-05-09T17:39:36.520Z</time>
      </trkpt>
      <trkpt lat="43.74168" lon="7.28797">
        <ele>73</ele>
        <time>2013-05-09T17:40:03.530Z</time>
      </trkpt>
      <trkpt lat="43.74342" lon="7.28813">
        <ele>73</ele>
        <time>2013-05-09T17:40:59.530Z</time>
      </trkpt>
      <trkpt lat="43.74363" lon="7.28817">
        <ele>73</ele>
        <time>2013-05-09T17:41:18.530Z</time>
      </trkpt>
      <trkpt lat="43.744" lon="7.28827">
        <ele>71</ele>
        <time>2013-05-09T17:42:04.520Z</time>
      </trkpt>
      <trkpt lat="43.74413" lon="7.28827">
        <ele>72</ele>
        <time>2013-05-09T17:43:24.540Z</time>
      </trkpt>
      <trkpt lat="43.74432" lon="7.28818">
        <ele>76</ele>
        <time>2013-05-09T17:48:19.560Z</time>
      </trkpt>
      <trkpt lat="43.74478" lon="7.28785">
        <ele>72</ele>
        <time>2013-05-09T17:52:04.550Z</time>
      </trkpt>
      <trkpt lat="43.74552" lon="7.28742">
        <ele>75</ele>
        <time>2013-05-09T17:52:16.550Z</time>
      </trkpt>
      <trkpt lat="43.74605" lon="7.28762">
        <ele>77</ele>
        <time>2013-05-09T17:52:23.550Z</time>
      </trkpt>
      <trkpt lat="43.7487" lon="7.28562">
        <ele>91</ele>
        <time>2013-05-09T17:52:53.560Z</time>
      </trkpt>
      <trkpt lat="43.74928" lon="7.28452">
        <ele>94</ele>
        <time>2013-05-09T17:53:02.560Z</time>
      </trkpt>
      <trkpt lat="43.75062" lon="7.2837">
        <ele>96</ele>
        <time>2013-05-09T17:53:43.550Z</time>
      </trkpt>
      <trkpt lat="43.75208" lon="7.27888">
        <ele>96</ele>
        <time>2013-05-09T17:53:53.550Z</time>
      </trkpt>
    </trkseg>
  </trk>
</gpx>